<?xml version="1.0" encoding="UTF-8" standalone="no" ?>
<gpx xmlns="http://www.topografix.com/GPX/1/1" xmlns:xsi="http://www.w3.org/2001/XMLSchema-instance" xsi:schemaLocation="http://www.topografix.com/GPX/1/1 http://www.topografix.com/GPX/1/1/gpx.xsd" version="1.1" creator="VisuGPX - https://www.visugpx.com">
  <metadata>
    <name>Balade à trois (Batou en cheval de bât)</name>
    <desc><![CDATA[Avec un Gringo moins stressé, sauf quand Batou lui a montré les oreilles couchées quand on a voulu se mettre côte à côte...^^]]></desc>
  </metadata>
  <trk>
    <name><![CDATA[Untitled]]></name>
    <trkseg>
      <trkpt lat="48.7065" lon="1.75577">
        <ele>176.19999694824</ele>
        <time>2013-06-06T13:23:03.000Z</time>
      </trkpt>
      <trkpt lat="48.70643" lon="1.7558">
        <ele>177</ele>
        <time>2013-06-06T13:23:04.000Z</time>
      </trkpt>
      <trkpt lat="48.70651" lon="1.75588">
        <ele>176.39999389648</ele>
        <time>2013-06-06T13:23:07.000Z</time>
      </trkpt>
      <trkpt lat="48.70646" lon="1.75595">
        <ele>177</ele>
        <time>2013-06-06T13:23:10.000Z</time>
      </trkpt>
      <trkpt lat="48.70641" lon="1.75609">
        <ele>177.60000610352</ele>
        <time>2013-06-06T13:23:18.000Z</time>
      </trkpt>
      <trkpt lat="48.7064" lon="1.75622">
        <ele>177.80000305176</ele>
        <time>2013-06-06T13:23:24.000Z</time>
      </trkpt>
      <trkpt lat="48.70639" lon="1.75633">
        <ele>178</ele>
        <time>2013-06-06T13:23:29.000Z</time>
      </trkpt>
      <trkpt lat="48.70639" lon="1.75636">
        <ele>178</ele>
        <time>2013-06-06T13:23:30.000Z</time>
      </trkpt>
      <trkpt lat="48.70638" lon="1.75644">
        <ele>178.19999694824</ele>
        <time>2013-06-06T13:23:34.000Z</time>
      </trkpt>
      <trkpt lat="48.70639" lon="1.75654">
        <ele>178.19999694824</ele>
        <time>2013-06-06T13:23:39.000Z</time>
      </trkpt>
      <trkpt lat="48.70639" lon="1.75664">
        <ele>178.19999694824</ele>
        <time>2013-06-06T13:23:44.000Z</time>
      </trkpt>
      <trkpt lat="48.70639" lon="1.75663">
        <ele>178.19999694824</ele>
        <time>2013-06-06T13:23:50.000Z</time>
      </trkpt>
      <trkpt lat="48.70639" lon="1.75662">
        <ele>178.19999694824</ele>
        <time>2013-06-06T13:23:51.000Z</time>
      </trkpt>
      <trkpt lat="48.70619" lon="1.75637">
        <ele>180.19999694824</ele>
        <time>2013-06-06T13:24:30.000Z</time>
      </trkpt>
      <trkpt lat="48.70617" lon="1.75632">
        <ele>180.39999389648</ele>
        <time>2013-06-06T13:24:33.000Z</time>
      </trkpt>
      <trkpt lat="48.70612" lon="1.75623">
        <ele>180.80000305176</ele>
        <time>2013-06-06T13:24:38.000Z</time>
      </trkpt>
      <trkpt lat="48.7061" lon="1.75623">
        <ele>181</ele>
        <time>2013-06-06T13:24:40.000Z</time>
      </trkpt>
      <trkpt lat="48.70605" lon="1.75613">
        <ele>181.39999389648</ele>
        <time>2013-06-06T13:24:46.000Z</time>
      </trkpt>
      <trkpt lat="48.70601" lon="1.75609">
        <ele>181.60000610352</ele>
        <time>2013-06-06T13:24:51.000Z</time>
      </trkpt>
      <trkpt lat="48.70596" lon="1.75599">
        <ele>182</ele>
        <time>2013-06-06T13:25:01.000Z</time>
      </trkpt>
      <trkpt lat="48.70592" lon="1.75598">
        <ele>182.39999389648</ele>
        <time>2013-06-06T13:25:03.000Z</time>
      </trkpt>
      <trkpt lat="48.70582" lon="1.75587">
        <ele>183</ele>
        <time>2013-06-06T13:25:08.000Z</time>
      </trkpt>
      <trkpt lat="48.70582" lon="1.75587">
        <ele>183</ele>
        <time>2013-06-06T13:25:10.000Z</time>
      </trkpt>
      <trkpt lat="48.70577" lon="1.75582">
        <ele>183</ele>
        <time>2013-06-06T13:25:15.000Z</time>
      </trkpt>
      <trkpt lat="48.70574" lon="1.75579">
        <ele>182.60000610352</ele>
        <time>2013-06-06T13:25:16.000Z</time>
      </trkpt>
      <trkpt lat="48.70562" lon="1.75568">
        <ele>182</ele>
        <time>2013-06-06T13:25:21.000Z</time>
      </trkpt>
      <trkpt lat="48.70558" lon="1.75566">
        <ele>182</ele>
        <time>2013-06-06T13:25:26.000Z</time>
      </trkpt>
      <trkpt lat="48.70557" lon="1.75565">
        <ele>182</ele>
        <time>2013-06-06T13:25:30.000Z</time>
      </trkpt>
      <trkpt lat="48.70555" lon="1.75564">
        <ele>181.80000305176</ele>
        <time>2013-06-06T13:25:33.000Z</time>
      </trkpt>
      <trkpt lat="48.70554" lon="1.75563">
        <ele>181.80000305176</ele>
        <time>2013-06-06T13:25:34.000Z</time>
      </trkpt>
      <trkpt lat="48.70544" lon="1.75558">
        <ele>181.80000305176</ele>
        <time>2013-06-06T13:25:40.000Z</time>
      </trkpt>
      <trkpt lat="48.7053" lon="1.75541">
        <ele>181.19999694824</ele>
        <time>2013-06-06T13:25:52.000Z</time>
      </trkpt>
      <trkpt lat="48.70528" lon="1.75537">
        <ele>181</ele>
        <time>2013-06-06T13:26:00.000Z</time>
      </trkpt>
      <trkpt lat="48.70533" lon="1.75539">
        <ele>181</ele>
        <time>2013-06-06T13:26:07.000Z</time>
      </trkpt>
      <trkpt lat="48.70534" lon="1.7554">
        <ele>181</ele>
        <time>2013-06-06T13:26:10.000Z</time>
      </trkpt>
      <trkpt lat="48.70509" lon="1.75529">
        <ele>181.80000305176</ele>
        <time>2013-06-06T13:26:42.000Z</time>
      </trkpt>
      <trkpt lat="48.70504" lon="1.75535">
        <ele>182.39999389648</ele>
        <time>2013-06-06T13:27:06.000Z</time>
      </trkpt>
      <trkpt lat="48.70503" lon="1.75533">
        <ele>182.39999389648</ele>
        <time>2013-06-06T13:27:09.000Z</time>
      </trkpt>
      <trkpt lat="48.7051" lon="1.75539">
        <ele>182.19999694824</ele>
        <time>2013-06-06T13:27:18.000Z</time>
      </trkpt>
      <trkpt lat="48.70513" lon="1.7554">
        <ele>182.19999694824</ele>
        <time>2013-06-06T13:27:23.000Z</time>
      </trkpt>
      <trkpt lat="48.70511" lon="1.75538">
        <ele>182.19999694824</ele>
        <time>2013-06-06T13:27:26.000Z</time>
      </trkpt>
      <trkpt lat="48.70511" lon="1.75537">
        <ele>182</ele>
        <time>2013-06-06T13:27:27.000Z</time>
      </trkpt>
      <trkpt lat="48.70508" lon="1.7553">
        <ele>181.80000305176</ele>
        <time>2013-06-06T13:27:37.000Z</time>
      </trkpt>
      <trkpt lat="48.70516" lon="1.75546">
        <ele>182.19999694824</ele>
        <time>2013-06-06T13:27:51.000Z</time>
      </trkpt>
      <trkpt lat="48.70519" lon="1.75548">
        <ele>182.19999694824</ele>
        <time>2013-06-06T13:27:54.000Z</time>
      </trkpt>
      <trkpt lat="48.70531" lon="1.7556">
        <ele>182.60000610352</ele>
        <time>2013-06-06T13:28:13.000Z</time>
      </trkpt>
      <trkpt lat="48.70528" lon="1.75558">
        <ele>182.39999389648</ele>
        <time>2013-06-06T13:28:18.000Z</time>
      </trkpt>
      <trkpt lat="48.70524" lon="1.75549">
        <ele>182</ele>
        <time>2013-06-06T13:28:30.000Z</time>
      </trkpt>
      <trkpt lat="48.70522" lon="1.7554">
        <ele>181.60000610352</ele>
        <time>2013-06-06T13:29:06.000Z</time>
      </trkpt>
      <trkpt lat="48.70522" lon="1.75539">
        <ele>181.60000610352</ele>
        <time>2013-06-06T13:29:08.000Z</time>
      </trkpt>
      <trkpt lat="48.7052" lon="1.75528">
        <ele>181</ele>
        <time>2013-06-06T13:29:19.000Z</time>
      </trkpt>
      <trkpt lat="48.70519" lon="1.75527">
        <ele>181</ele>
        <time>2013-06-06T13:29:20.000Z</time>
      </trkpt>
      <trkpt lat="48.70513" lon="1.75519">
        <ele>180.80000305176</ele>
        <time>2013-06-06T13:29:25.000Z</time>
      </trkpt>
      <trkpt lat="48.7051" lon="1.75517">
        <ele>181</ele>
        <time>2013-06-06T13:29:31.000Z</time>
      </trkpt>
      <trkpt lat="48.70504" lon="1.75514">
        <ele>181.19999694824</ele>
        <time>2013-06-06T13:29:39.000Z</time>
      </trkpt>
      <trkpt lat="48.70496" lon="1.75507">
        <ele>181.39999389648</ele>
        <time>2013-06-06T13:29:43.000Z</time>
      </trkpt>
      <trkpt lat="48.70492" lon="1.75499">
        <ele>181.19999694824</ele>
        <time>2013-06-06T13:29:50.000Z</time>
      </trkpt>
      <trkpt lat="48.70471" lon="1.75475">
        <ele>180.80000305176</ele>
        <time>2013-06-06T13:30:18.000Z</time>
      </trkpt>
      <trkpt lat="48.70468" lon="1.75471">
        <ele>180.80000305176</ele>
        <time>2013-06-06T13:30:22.000Z</time>
      </trkpt>
      <trkpt lat="48.70467" lon="1.75468">
        <ele>180.60000610352</ele>
        <time>2013-06-06T13:30:23.000Z</time>
      </trkpt>
      <trkpt lat="48.70458" lon="1.75461">
        <ele>180.80000305176</ele>
        <time>2013-06-06T13:30:30.000Z</time>
      </trkpt>
      <trkpt lat="48.70453" lon="1.75456">
        <ele>180.80000305176</ele>
        <time>2013-06-06T13:30:36.000Z</time>
      </trkpt>
      <trkpt lat="48.70449" lon="1.75451">
        <ele>181</ele>
        <time>2013-06-06T13:30:42.000Z</time>
      </trkpt>
      <trkpt lat="48.70451" lon="1.75453">
        <ele>180.80000305176</ele>
        <time>2013-06-06T13:30:47.000Z</time>
      </trkpt>
      <trkpt lat="48.70457" lon="1.75447">
        <ele>180.19999694824</ele>
        <time>2013-06-06T13:31:04.000Z</time>
      </trkpt>
      <trkpt lat="48.70457" lon="1.75447">
        <ele>180.19999694824</ele>
        <time>2013-06-06T13:31:05.000Z</time>
      </trkpt>
      <trkpt lat="48.70443" lon="1.75449">
        <ele>181.19999694824</ele>
        <time>2013-06-06T13:31:28.000Z</time>
      </trkpt>
      <trkpt lat="48.70433" lon="1.75443">
        <ele>181.60000610352</ele>
        <time>2013-06-06T13:31:33.000Z</time>
      </trkpt>
      <trkpt lat="48.70429" lon="1.75438">
        <ele>181.60000610352</ele>
        <time>2013-06-06T13:31:37.000Z</time>
      </trkpt>
      <trkpt lat="48.70421" lon="1.75433">
        <ele>182</ele>
        <time>2013-06-06T13:31:43.000Z</time>
      </trkpt>
      <trkpt lat="48.70408" lon="1.75424">
        <ele>182</ele>
        <time>2013-06-06T13:31:50.000Z</time>
      </trkpt>
      <trkpt lat="48.704" lon="1.7542">
        <ele>181.80000305176</ele>
        <time>2013-06-06T13:31:55.000Z</time>
      </trkpt>
      <trkpt lat="48.70393" lon="1.75414">
        <ele>181.60000610352</ele>
        <time>2013-06-06T13:32:00.000Z</time>
      </trkpt>
      <trkpt lat="48.7039" lon="1.75406">
        <ele>181.19999694824</ele>
        <time>2013-06-06T13:32:08.000Z</time>
      </trkpt>
      <trkpt lat="48.70385" lon="1.75404">
        <ele>181.19999694824</ele>
        <time>2013-06-06T13:32:14.000Z</time>
      </trkpt>
      <trkpt lat="48.70382" lon="1.75406">
        <ele>181.19999694824</ele>
        <time>2013-06-06T13:32:17.000Z</time>
      </trkpt>
      <trkpt lat="48.70379" lon="1.75405">
        <ele>181.19999694824</ele>
        <time>2013-06-06T13:32:19.000Z</time>
      </trkpt>
      <trkpt lat="48.70367" lon="1.75394">
        <ele>180.80000305176</ele>
        <time>2013-06-06T13:32:26.000Z</time>
      </trkpt>
      <trkpt lat="48.70362" lon="1.75388">
        <ele>180.80000305176</ele>
        <time>2013-06-06T13:32:32.000Z</time>
      </trkpt>
      <trkpt lat="48.70352" lon="1.75377">
        <ele>180.80000305176</ele>
        <time>2013-06-06T13:32:39.000Z</time>
      </trkpt>
      <trkpt lat="48.70346" lon="1.7537">
        <ele>180.80000305176</ele>
        <time>2013-06-06T13:32:45.000Z</time>
      </trkpt>
      <trkpt lat="48.70339" lon="1.75364">
        <ele>180.80000305176</ele>
        <time>2013-06-06T13:32:50.000Z</time>
      </trkpt>
      <trkpt lat="48.70331" lon="1.75356">
        <ele>180.80000305176</ele>
        <time>2013-06-06T13:32:57.000Z</time>
      </trkpt>
      <trkpt lat="48.70326" lon="1.75353">
        <ele>180.80000305176</ele>
        <time>2013-06-06T13:33:02.000Z</time>
      </trkpt>
      <trkpt lat="48.7032" lon="1.75348">
        <ele>180.60000610352</ele>
        <time>2013-06-06T13:33:07.000Z</time>
      </trkpt>
      <trkpt lat="48.70312" lon="1.7534">
        <ele>180.39999389648</ele>
        <time>2013-06-06T13:33:13.000Z</time>
      </trkpt>
      <trkpt lat="48.70309" lon="1.75333">
        <ele>180.39999389648</ele>
        <time>2013-06-06T13:33:16.000Z</time>
      </trkpt>
      <trkpt lat="48.703" lon="1.75319">
        <ele>180.19999694824</ele>
        <time>2013-06-06T13:33:22.000Z</time>
      </trkpt>
      <trkpt lat="48.70294" lon="1.75309">
        <ele>180.19999694824</ele>
        <time>2013-06-06T13:33:28.000Z</time>
      </trkpt>
      <trkpt lat="48.70289" lon="1.75302">
        <ele>180.19999694824</ele>
        <time>2013-06-06T13:33:33.000Z</time>
      </trkpt>
      <trkpt lat="48.70278" lon="1.75296">
        <ele>180</ele>
        <time>2013-06-06T13:33:39.000Z</time>
      </trkpt>
      <trkpt lat="48.7027" lon="1.75291">
        <ele>179.80000305176</ele>
        <time>2013-06-06T13:33:44.000Z</time>
      </trkpt>
      <trkpt lat="48.70269" lon="1.75286">
        <ele>180</ele>
        <time>2013-06-06T13:33:48.000Z</time>
      </trkpt>
      <trkpt lat="48.70264" lon="1.75277">
        <ele>180</ele>
        <time>2013-06-06T13:33:55.000Z</time>
      </trkpt>
      <trkpt lat="48.70252" lon="1.7527">
        <ele>179.80000305176</ele>
        <time>2013-06-06T13:34:01.000Z</time>
      </trkpt>
      <trkpt lat="48.70243" lon="1.75269">
        <ele>179.39999389648</ele>
        <time>2013-06-06T13:34:05.000Z</time>
      </trkpt>
      <trkpt lat="48.70239" lon="1.75264">
        <ele>179.19999694824</ele>
        <time>2013-06-06T13:34:10.000Z</time>
      </trkpt>
      <trkpt lat="48.70238" lon="1.75264">
        <ele>179.19999694824</ele>
        <time>2013-06-06T13:34:11.000Z</time>
      </trkpt>
      <trkpt lat="48.70234" lon="1.75255">
        <ele>179</ele>
        <time>2013-06-06T13:34:17.000Z</time>
      </trkpt>
      <trkpt lat="48.70226" lon="1.75252">
        <ele>178.80000305176</ele>
        <time>2013-06-06T13:34:22.000Z</time>
      </trkpt>
      <trkpt lat="48.70219" lon="1.7525">
        <ele>178.39999389648</ele>
        <time>2013-06-06T13:34:26.000Z</time>
      </trkpt>
      <trkpt lat="48.70212" lon="1.75246">
        <ele>178</ele>
        <time>2013-06-06T13:34:31.000Z</time>
      </trkpt>
      <trkpt lat="48.70207" lon="1.75245">
        <ele>177.80000305176</ele>
        <time>2013-06-06T13:34:35.000Z</time>
      </trkpt>
      <trkpt lat="48.70203" lon="1.75245">
        <ele>177.60000610352</ele>
        <time>2013-06-06T13:34:39.000Z</time>
      </trkpt>
      <trkpt lat="48.70198" lon="1.75248">
        <ele>177.39999389648</ele>
        <time>2013-06-06T13:34:45.000Z</time>
      </trkpt>
      <trkpt lat="48.70194" lon="1.75252">
        <ele>177.19999694824</ele>
        <time>2013-06-06T13:34:50.000Z</time>
      </trkpt>
      <trkpt lat="48.70188" lon="1.75255">
        <ele>177</ele>
        <time>2013-06-06T13:34:54.000Z</time>
      </trkpt>
      <trkpt lat="48.70177" lon="1.75258">
        <ele>176.39999389648</ele>
        <time>2013-06-06T13:35:00.000Z</time>
      </trkpt>
      <trkpt lat="48.70168" lon="1.75261">
        <ele>176</ele>
        <time>2013-06-06T13:35:07.000Z</time>
      </trkpt>
      <trkpt lat="48.70162" lon="1.75265">
        <ele>175.80000305176</ele>
        <time>2013-06-06T13:35:13.000Z</time>
      </trkpt>
      <trkpt lat="48.70157" lon="1.75268">
        <ele>175.80000305176</ele>
        <time>2013-06-06T13:35:17.000Z</time>
      </trkpt>
      <trkpt lat="48.70148" lon="1.75275">
        <ele>175.80000305176</ele>
        <time>2013-06-06T13:35:22.000Z</time>
      </trkpt>
      <trkpt lat="48.70148" lon="1.75283">
        <ele>175.60000610352</ele>
        <time>2013-06-06T13:35:27.000Z</time>
      </trkpt>
      <trkpt lat="48.70142" lon="1.75286">
        <ele>175.60000610352</ele>
        <time>2013-06-06T13:35:31.000Z</time>
      </trkpt>
      <trkpt lat="48.70137" lon="1.75286">
        <ele>175.39999389648</ele>
        <time>2013-06-06T13:35:35.000Z</time>
      </trkpt>
      <trkpt lat="48.70129" lon="1.75287">
        <ele>175.19999694824</ele>
        <time>2013-06-06T13:35:41.000Z</time>
      </trkpt>
      <trkpt lat="48.70122" lon="1.7529">
        <ele>175.19999694824</ele>
        <time>2013-06-06T13:35:46.000Z</time>
      </trkpt>
      <trkpt lat="48.70109" lon="1.75295">
        <ele>174.80000305176</ele>
        <time>2013-06-06T13:35:52.000Z</time>
      </trkpt>
      <trkpt lat="48.701" lon="1.753">
        <ele>174.39999389648</ele>
        <time>2013-06-06T13:35:58.000Z</time>
      </trkpt>
      <trkpt lat="48.70096" lon="1.75304">
        <ele>174.19999694824</ele>
        <time>2013-06-06T13:36:04.000Z</time>
      </trkpt>
      <trkpt lat="48.70091" lon="1.75308">
        <ele>174</ele>
        <time>2013-06-06T13:36:08.000Z</time>
      </trkpt>
      <trkpt lat="48.70083" lon="1.75312">
        <ele>173.60000610352</ele>
        <time>2013-06-06T13:36:13.000Z</time>
      </trkpt>
      <trkpt lat="48.70076" lon="1.75316">
        <ele>173.39999389648</ele>
        <time>2013-06-06T13:36:18.000Z</time>
      </trkpt>
      <trkpt lat="48.70073" lon="1.75321">
        <ele>173.19999694824</ele>
        <time>2013-06-06T13:36:23.000Z</time>
      </trkpt>
      <trkpt lat="48.70072" lon="1.75323">
        <ele>173.19999694824</ele>
        <time>2013-06-06T13:36:26.000Z</time>
      </trkpt>
      <trkpt lat="48.7007" lon="1.75325">
        <ele>173</ele>
        <time>2013-06-06T13:36:29.000Z</time>
      </trkpt>
      <trkpt lat="48.7006" lon="1.75327">
        <ele>172.80000305176</ele>
        <time>2013-06-06T13:36:34.000Z</time>
      </trkpt>
      <trkpt lat="48.70045" lon="1.75332">
        <ele>172.39999389648</ele>
        <time>2013-06-06T13:36:42.000Z</time>
      </trkpt>
      <trkpt lat="48.70036" lon="1.75335">
        <ele>172.19999694824</ele>
        <time>2013-06-06T13:36:47.000Z</time>
      </trkpt>
      <trkpt lat="48.70036" lon="1.75339">
        <ele>172</ele>
        <time>2013-06-06T13:36:50.000Z</time>
      </trkpt>
      <trkpt lat="48.70025" lon="1.75342">
        <ele>171.80000305176</ele>
        <time>2013-06-06T13:36:55.000Z</time>
      </trkpt>
      <trkpt lat="48.70015" lon="1.75346">
        <ele>171.60000610352</ele>
        <time>2013-06-06T13:37:00.000Z</time>
      </trkpt>
      <trkpt lat="48.70007" lon="1.75352">
        <ele>171.19999694824</ele>
        <time>2013-06-06T13:37:06.000Z</time>
      </trkpt>
      <trkpt lat="48.70007" lon="1.75355">
        <ele>171.19999694824</ele>
        <time>2013-06-06T13:37:12.000Z</time>
      </trkpt>
      <trkpt lat="48.70001" lon="1.75355">
        <ele>171.19999694824</ele>
        <time>2013-06-06T13:37:18.000Z</time>
      </trkpt>
      <trkpt lat="48.69992" lon="1.75356">
        <ele>171.19999694824</ele>
        <time>2013-06-06T13:37:22.000Z</time>
      </trkpt>
      <trkpt lat="48.69982" lon="1.7536">
        <ele>171.19999694824</ele>
        <time>2013-06-06T13:37:27.000Z</time>
      </trkpt>
      <trkpt lat="48.69975" lon="1.75364">
        <ele>171.19999694824</ele>
        <time>2013-06-06T13:37:32.000Z</time>
      </trkpt>
      <trkpt lat="48.69967" lon="1.75368">
        <ele>171.39999389648</ele>
        <time>2013-06-06T13:37:38.000Z</time>
      </trkpt>
      <trkpt lat="48.69963" lon="1.75369">
        <ele>171.39999389648</ele>
        <time>2013-06-06T13:37:40.000Z</time>
      </trkpt>
      <trkpt lat="48.69951" lon="1.75374">
        <ele>171.60000610352</ele>
        <time>2013-06-06T13:37:46.000Z</time>
      </trkpt>
      <trkpt lat="48.69941" lon="1.75379">
        <ele>171.80000305176</ele>
        <time>2013-06-06T13:37:52.000Z</time>
      </trkpt>
      <trkpt lat="48.69932" lon="1.75383">
        <ele>171.80000305176</ele>
        <time>2013-06-06T13:37:57.000Z</time>
      </trkpt>
      <trkpt lat="48.69923" lon="1.75384">
        <ele>172.19999694824</ele>
        <time>2013-06-06T13:38:02.000Z</time>
      </trkpt>
      <trkpt lat="48.69917" lon="1.75386">
        <ele>172.19999694824</ele>
        <time>2013-06-06T13:38:05.000Z</time>
      </trkpt>
      <trkpt lat="48.69911" lon="1.75391">
        <ele>172</ele>
        <time>2013-06-06T13:38:09.000Z</time>
      </trkpt>
      <trkpt lat="48.69908" lon="1.75394">
        <ele>172</ele>
        <time>2013-06-06T13:38:14.000Z</time>
      </trkpt>
      <trkpt lat="48.69899" lon="1.754">
        <ele>171.80000305176</ele>
        <time>2013-06-06T13:38:21.000Z</time>
      </trkpt>
      <trkpt lat="48.6989" lon="1.75406">
        <ele>171.39999389648</ele>
        <time>2013-06-06T13:38:28.000Z</time>
      </trkpt>
      <trkpt lat="48.69881" lon="1.75408">
        <ele>171.19999694824</ele>
        <time>2013-06-06T13:38:33.000Z</time>
      </trkpt>
      <trkpt lat="48.69875" lon="1.75408">
        <ele>171</ele>
        <time>2013-06-06T13:38:37.000Z</time>
      </trkpt>
      <trkpt lat="48.69874" lon="1.75408">
        <ele>171</ele>
        <time>2013-06-06T13:38:38.000Z</time>
      </trkpt>
      <trkpt lat="48.69867" lon="1.75415">
        <ele>170.80000305176</ele>
        <time>2013-06-06T13:38:44.000Z</time>
      </trkpt>
      <trkpt lat="48.69861" lon="1.75415">
        <ele>170.60000610352</ele>
        <time>2013-06-06T13:38:49.000Z</time>
      </trkpt>
      <trkpt lat="48.69854" lon="1.75415">
        <ele>170.39999389648</ele>
        <time>2013-06-06T13:38:53.000Z</time>
      </trkpt>
      <trkpt lat="48.69848" lon="1.75416">
        <ele>170.19999694824</ele>
        <time>2013-06-06T13:38:59.000Z</time>
      </trkpt>
      <trkpt lat="48.69845" lon="1.75416">
        <ele>170.19999694824</ele>
        <time>2013-06-06T13:39:03.000Z</time>
      </trkpt>
      <trkpt lat="48.69843" lon="1.75418">
        <ele>170</ele>
        <time>2013-06-06T13:39:06.000Z</time>
      </trkpt>
      <trkpt lat="48.69831" lon="1.75424">
        <ele>169.60000610352</ele>
        <time>2013-06-06T13:39:12.000Z</time>
      </trkpt>
      <trkpt lat="48.69827" lon="1.75426">
        <ele>169.39999389648</ele>
        <time>2013-06-06T13:39:14.000Z</time>
      </trkpt>
      <trkpt lat="48.69821" lon="1.75425">
        <ele>169.19999694824</ele>
        <time>2013-06-06T13:39:18.000Z</time>
      </trkpt>
      <trkpt lat="48.69815" lon="1.75433">
        <ele>168.60000610352</ele>
        <time>2013-06-06T13:39:24.000Z</time>
      </trkpt>
      <trkpt lat="48.69808" lon="1.75441">
        <ele>168</ele>
        <time>2013-06-06T13:39:29.000Z</time>
      </trkpt>
      <trkpt lat="48.69798" lon="1.75445">
        <ele>167.39999389648</ele>
        <time>2013-06-06T13:39:35.000Z</time>
      </trkpt>
      <trkpt lat="48.69787" lon="1.75449">
        <ele>166.80000305176</ele>
        <time>2013-06-06T13:39:43.000Z</time>
      </trkpt>
      <trkpt lat="48.69779" lon="1.75452">
        <ele>166.39999389648</ele>
        <time>2013-06-06T13:39:49.000Z</time>
      </trkpt>
      <trkpt lat="48.6977" lon="1.75457">
        <ele>165.80000305176</ele>
        <time>2013-06-06T13:39:56.000Z</time>
      </trkpt>
      <trkpt lat="48.69762" lon="1.75461">
        <ele>165.19999694824</ele>
        <time>2013-06-06T13:40:00.000Z</time>
      </trkpt>
      <trkpt lat="48.69754" lon="1.75466">
        <ele>164.80000305176</ele>
        <time>2013-06-06T13:40:07.000Z</time>
      </trkpt>
      <trkpt lat="48.69745" lon="1.75472">
        <ele>164</ele>
        <time>2013-06-06T13:40:14.000Z</time>
      </trkpt>
      <trkpt lat="48.6974" lon="1.75474">
        <ele>163.60000610352</ele>
        <time>2013-06-06T13:40:17.000Z</time>
      </trkpt>
      <trkpt lat="48.69732" lon="1.75478">
        <ele>163.19999694824</ele>
        <time>2013-06-06T13:40:22.000Z</time>
      </trkpt>
      <trkpt lat="48.69721" lon="1.75481">
        <ele>162.39999389648</ele>
        <time>2013-06-06T13:40:30.000Z</time>
      </trkpt>
      <trkpt lat="48.69716" lon="1.75481">
        <ele>162.19999694824</ele>
        <time>2013-06-06T13:40:34.000Z</time>
      </trkpt>
      <trkpt lat="48.69712" lon="1.75481">
        <ele>162</ele>
        <time>2013-06-06T13:40:37.000Z</time>
      </trkpt>
      <trkpt lat="48.69701" lon="1.75486">
        <ele>161.19999694824</ele>
        <time>2013-06-06T13:40:45.000Z</time>
      </trkpt>
      <trkpt lat="48.69694" lon="1.75489">
        <ele>160.80000305176</ele>
        <time>2013-06-06T13:40:53.000Z</time>
      </trkpt>
      <trkpt lat="48.69691" lon="1.75491">
        <ele>160.39999389648</ele>
        <time>2013-06-06T13:41:00.000Z</time>
      </trkpt>
      <trkpt lat="48.69685" lon="1.75494">
        <ele>160</ele>
        <time>2013-06-06T13:41:03.000Z</time>
      </trkpt>
      <trkpt lat="48.69683" lon="1.75496">
        <ele>159.80000305176</ele>
        <time>2013-06-06T13:41:08.000Z</time>
      </trkpt>
      <trkpt lat="48.69677" lon="1.75497">
        <ele>159.60000610352</ele>
        <time>2013-06-06T13:41:17.000Z</time>
      </trkpt>
      <trkpt lat="48.69667" lon="1.75502">
        <ele>158.80000305176</ele>
        <time>2013-06-06T13:41:24.000Z</time>
      </trkpt>
      <trkpt lat="48.69664" lon="1.75505">
        <ele>158.80000305176</ele>
        <time>2013-06-06T13:41:27.000Z</time>
      </trkpt>
      <trkpt lat="48.69653" lon="1.75508">
        <ele>158.39999389648</ele>
        <time>2013-06-06T13:41:35.000Z</time>
      </trkpt>
      <trkpt lat="48.69643" lon="1.75513">
        <ele>158</ele>
        <time>2013-06-06T13:41:42.000Z</time>
      </trkpt>
      <trkpt lat="48.69635" lon="1.75517">
        <ele>157.60000610352</ele>
        <time>2013-06-06T13:41:48.000Z</time>
      </trkpt>
      <trkpt lat="48.69632" lon="1.75519">
        <ele>157.60000610352</ele>
        <time>2013-06-06T13:41:50.000Z</time>
      </trkpt>
      <trkpt lat="48.6962" lon="1.75523">
        <ele>157.19999694824</ele>
        <time>2013-06-06T13:41:58.000Z</time>
      </trkpt>
      <trkpt lat="48.69613" lon="1.75527">
        <ele>156.80000305176</ele>
        <time>2013-06-06T13:42:04.000Z</time>
      </trkpt>
      <trkpt lat="48.69603" lon="1.75531">
        <ele>156.60000610352</ele>
        <time>2013-06-06T13:42:11.000Z</time>
      </trkpt>
      <trkpt lat="48.69591" lon="1.75536">
        <ele>156.19999694824</ele>
        <time>2013-06-06T13:42:19.000Z</time>
      </trkpt>
      <trkpt lat="48.69588" lon="1.75537">
        <ele>156</ele>
        <time>2013-06-06T13:42:21.000Z</time>
      </trkpt>
      <trkpt lat="48.69582" lon="1.75542">
        <ele>155.80000305176</ele>
        <time>2013-06-06T13:42:26.000Z</time>
      </trkpt>
      <trkpt lat="48.69574" lon="1.75547">
        <ele>155.80000305176</ele>
        <time>2013-06-06T13:42:33.000Z</time>
      </trkpt>
      <trkpt lat="48.69567" lon="1.75552">
        <ele>155.80000305176</ele>
        <time>2013-06-06T13:42:38.000Z</time>
      </trkpt>
      <trkpt lat="48.69561" lon="1.75555">
        <ele>155.80000305176</ele>
        <time>2013-06-06T13:42:43.000Z</time>
      </trkpt>
      <trkpt lat="48.69555" lon="1.75556">
        <ele>155.60000610352</ele>
        <time>2013-06-06T13:42:47.000Z</time>
      </trkpt>
      <trkpt lat="48.69545" lon="1.75559">
        <ele>155.60000610352</ele>
        <time>2013-06-06T13:42:54.000Z</time>
      </trkpt>
      <trkpt lat="48.69533" lon="1.75564">
        <ele>155.60000610352</ele>
        <time>2013-06-06T13:43:02.000Z</time>
      </trkpt>
      <trkpt lat="48.69518" lon="1.75568">
        <ele>155.60000610352</ele>
        <time>2013-06-06T13:43:11.000Z</time>
      </trkpt>
      <trkpt lat="48.69505" lon="1.75573">
        <ele>155.60000610352</ele>
        <time>2013-06-06T13:43:19.000Z</time>
      </trkpt>
      <trkpt lat="48.6949" lon="1.7558">
        <ele>156.19999694824</ele>
        <time>2013-06-06T13:43:29.000Z</time>
      </trkpt>
      <trkpt lat="48.69482" lon="1.75584">
        <ele>156.80000305176</ele>
        <time>2013-06-06T13:43:35.000Z</time>
      </trkpt>
      <trkpt lat="48.69471" lon="1.7559">
        <ele>157.60000610352</ele>
        <time>2013-06-06T13:43:42.000Z</time>
      </trkpt>
      <trkpt lat="48.69458" lon="1.75596">
        <ele>158.39999389648</ele>
        <time>2013-06-06T13:43:49.000Z</time>
      </trkpt>
      <trkpt lat="48.69448" lon="1.75599">
        <ele>159</ele>
        <time>2013-06-06T13:43:55.000Z</time>
      </trkpt>
      <trkpt lat="48.6944" lon="1.75604">
        <ele>159.60000610352</ele>
        <time>2013-06-06T13:44:02.000Z</time>
      </trkpt>
      <trkpt lat="48.69439" lon="1.75604">
        <ele>159.60000610352</ele>
        <time>2013-06-06T13:44:03.000Z</time>
      </trkpt>
      <trkpt lat="48.69431" lon="1.75606">
        <ele>160</ele>
        <time>2013-06-06T13:44:10.000Z</time>
      </trkpt>
      <trkpt lat="48.69421" lon="1.75605">
        <ele>160.60000610352</ele>
        <time>2013-06-06T13:44:16.000Z</time>
      </trkpt>
      <trkpt lat="48.69408" lon="1.75605">
        <ele>160.80000305176</ele>
        <time>2013-06-06T13:44:23.000Z</time>
      </trkpt>
      <trkpt lat="48.69398" lon="1.75605">
        <ele>160.80000305176</ele>
        <time>2013-06-06T13:44:29.000Z</time>
      </trkpt>
      <trkpt lat="48.69393" lon="1.75602">
        <ele>160.80000305176</ele>
        <time>2013-06-06T13:44:33.000Z</time>
      </trkpt>
      <trkpt lat="48.69383" lon="1.75601">
        <ele>160.80000305176</ele>
        <time>2013-06-06T13:44:40.000Z</time>
      </trkpt>
      <trkpt lat="48.69375" lon="1.75599">
        <ele>160.80000305176</ele>
        <time>2013-06-06T13:44:45.000Z</time>
      </trkpt>
      <trkpt lat="48.69369" lon="1.75597">
        <ele>160.80000305176</ele>
        <time>2013-06-06T13:44:49.000Z</time>
      </trkpt>
      <trkpt lat="48.69362" lon="1.75598">
        <ele>161</ele>
        <time>2013-06-06T13:44:55.000Z</time>
      </trkpt>
      <trkpt lat="48.69355" lon="1.75597">
        <ele>161</ele>
        <time>2013-06-06T13:45:00.000Z</time>
      </trkpt>
      <trkpt lat="48.69344" lon="1.75594">
        <ele>161</ele>
        <time>2013-06-06T13:45:06.000Z</time>
      </trkpt>
      <trkpt lat="48.69335" lon="1.75588">
        <ele>161</ele>
        <time>2013-06-06T13:45:13.000Z</time>
      </trkpt>
      <trkpt lat="48.69333" lon="1.75583">
        <ele>160.80000305176</ele>
        <time>2013-06-06T13:45:17.000Z</time>
      </trkpt>
      <trkpt lat="48.69338" lon="1.75562">
        <ele>160.80000305176</ele>
        <time>2013-06-06T13:45:23.000Z</time>
      </trkpt>
      <trkpt lat="48.69338" lon="1.75558">
        <ele>160.80000305176</ele>
        <time>2013-06-06T13:45:24.000Z</time>
      </trkpt>
      <trkpt lat="48.69341" lon="1.75544">
        <ele>160.80000305176</ele>
        <time>2013-06-06T13:45:30.000Z</time>
      </trkpt>
      <trkpt lat="48.69344" lon="1.75529">
        <ele>160.60000610352</ele>
        <time>2013-06-06T13:45:35.000Z</time>
      </trkpt>
      <trkpt lat="48.69344" lon="1.75525">
        <ele>160.60000610352</ele>
        <time>2013-06-06T13:45:38.000Z</time>
      </trkpt>
      <trkpt lat="48.69344" lon="1.75514">
        <ele>160.60000610352</ele>
        <time>2013-06-06T13:45:43.000Z</time>
      </trkpt>
      <trkpt lat="48.69344" lon="1.75509">
        <ele>160.60000610352</ele>
        <time>2013-06-06T13:45:45.000Z</time>
      </trkpt>
      <trkpt lat="48.69345" lon="1.755">
        <ele>160.39999389648</ele>
        <time>2013-06-06T13:45:49.000Z</time>
      </trkpt>
      <trkpt lat="48.6935" lon="1.75476">
        <ele>159.80000305176</ele>
        <time>2013-06-06T13:45:59.000Z</time>
      </trkpt>
      <trkpt lat="48.69355" lon="1.75443">
        <ele>159</ele>
        <time>2013-06-06T13:46:13.000Z</time>
      </trkpt>
      <trkpt lat="48.69358" lon="1.75429">
        <ele>158.60000610352</ele>
        <time>2013-06-06T13:46:20.000Z</time>
      </trkpt>
      <trkpt lat="48.69363" lon="1.75407">
        <ele>158.39999389648</ele>
        <time>2013-06-06T13:46:30.000Z</time>
      </trkpt>
      <trkpt lat="48.69367" lon="1.75387">
        <ele>158.60000610352</ele>
        <time>2013-06-06T13:46:39.000Z</time>
      </trkpt>
      <trkpt lat="48.69371" lon="1.75372">
        <ele>158.39999389648</ele>
        <time>2013-06-06T13:46:47.000Z</time>
      </trkpt>
      <trkpt lat="48.69376" lon="1.75357">
        <ele>158.39999389648</ele>
        <time>2013-06-06T13:46:55.000Z</time>
      </trkpt>
      <trkpt lat="48.6938" lon="1.75343">
        <ele>158.19999694824</ele>
        <time>2013-06-06T13:47:02.000Z</time>
      </trkpt>
      <trkpt lat="48.69384" lon="1.75324">
        <ele>158.39999389648</ele>
        <time>2013-06-06T13:47:12.000Z</time>
      </trkpt>
      <trkpt lat="48.69388" lon="1.75307">
        <ele>159</ele>
        <time>2013-06-06T13:47:20.000Z</time>
      </trkpt>
      <trkpt lat="48.69389" lon="1.75302">
        <ele>159</ele>
        <time>2013-06-06T13:47:23.000Z</time>
      </trkpt>
      <trkpt lat="48.6939" lon="1.7529">
        <ele>159.60000610352</ele>
        <time>2013-06-06T13:47:26.000Z</time>
      </trkpt>
      <trkpt lat="48.69392" lon="1.75274">
        <ele>160.19999694824</ele>
        <time>2013-06-06T13:47:34.000Z</time>
      </trkpt>
      <trkpt lat="48.69396" lon="1.75263">
        <ele>160.60000610352</ele>
        <time>2013-06-06T13:47:40.000Z</time>
      </trkpt>
      <trkpt lat="48.69398" lon="1.75255">
        <ele>160.80000305176</ele>
        <time>2013-06-06T13:47:44.000Z</time>
      </trkpt>
      <trkpt lat="48.694" lon="1.75245">
        <ele>161.19999694824</ele>
        <time>2013-06-06T13:47:49.000Z</time>
      </trkpt>
      <trkpt lat="48.69402" lon="1.75239">
        <ele>161.39999389648</ele>
        <time>2013-06-06T13:47:52.000Z</time>
      </trkpt>
      <trkpt lat="48.69404" lon="1.75229">
        <ele>161.80000305176</ele>
        <time>2013-06-06T13:47:57.000Z</time>
      </trkpt>
      <trkpt lat="48.69407" lon="1.75212">
        <ele>162.39999389648</ele>
        <time>2013-06-06T13:48:05.000Z</time>
      </trkpt>
      <trkpt lat="48.69411" lon="1.75198">
        <ele>163.19999694824</ele>
        <time>2013-06-06T13:48:13.000Z</time>
      </trkpt>
      <trkpt lat="48.69414" lon="1.75181">
        <ele>164</ele>
        <time>2013-06-06T13:48:22.000Z</time>
      </trkpt>
      <trkpt lat="48.69418" lon="1.7517">
        <ele>164.80000305176</ele>
        <time>2013-06-06T13:48:28.000Z</time>
      </trkpt>
      <trkpt lat="48.69421" lon="1.75157">
        <ele>165.19999694824</ele>
        <time>2013-06-06T13:48:34.000Z</time>
      </trkpt>
      <trkpt lat="48.69422" lon="1.75148">
        <ele>165.39999389648</ele>
        <time>2013-06-06T13:48:39.000Z</time>
      </trkpt>
      <trkpt lat="48.69422" lon="1.75145">
        <ele>165.60000610352</ele>
        <time>2013-06-06T13:48:43.000Z</time>
      </trkpt>
      <trkpt lat="48.69422" lon="1.75138">
        <ele>165.80000305176</ele>
        <time>2013-06-06T13:48:48.000Z</time>
      </trkpt>
      <trkpt lat="48.69421" lon="1.75134">
        <ele>166</ele>
        <time>2013-06-06T13:48:50.000Z</time>
      </trkpt>
      <trkpt lat="48.69424" lon="1.7512">
        <ele>166.39999389648</ele>
        <time>2013-06-06T13:48:57.000Z</time>
      </trkpt>
      <trkpt lat="48.69429" lon="1.75103">
        <ele>167</ele>
        <time>2013-06-06T13:49:05.000Z</time>
      </trkpt>
      <trkpt lat="48.6943" lon="1.75098">
        <ele>167</ele>
        <time>2013-06-06T13:49:07.000Z</time>
      </trkpt>
      <trkpt lat="48.69431" lon="1.75088">
        <ele>167.39999389648</ele>
        <time>2013-06-06T13:49:11.000Z</time>
      </trkpt>
      <trkpt lat="48.69436" lon="1.75069">
        <ele>167.60000610352</ele>
        <time>2013-06-06T13:49:19.000Z</time>
      </trkpt>
      <trkpt lat="48.69437" lon="1.75067">
        <ele>167.60000610352</ele>
        <time>2013-06-06T13:49:20.000Z</time>
      </trkpt>
      <trkpt lat="48.69438" lon="1.75061">
        <ele>167.60000610352</ele>
        <time>2013-06-06T13:49:24.000Z</time>
      </trkpt>
      <trkpt lat="48.69434" lon="1.75045">
        <ele>167.60000610352</ele>
        <time>2013-06-06T13:49:31.000Z</time>
      </trkpt>
      <trkpt lat="48.6943" lon="1.75029">
        <ele>167.80000305176</ele>
        <time>2013-06-06T13:49:38.000Z</time>
      </trkpt>
      <trkpt lat="48.69427" lon="1.75017">
        <ele>167.80000305176</ele>
        <time>2013-06-06T13:49:43.000Z</time>
      </trkpt>
      <trkpt lat="48.69425" lon="1.7501">
        <ele>167.80000305176</ele>
        <time>2013-06-06T13:49:46.000Z</time>
      </trkpt>
      <trkpt lat="48.69422" lon="1.75002">
        <ele>167.80000305176</ele>
        <time>2013-06-06T13:49:50.000Z</time>
      </trkpt>
      <trkpt lat="48.69418" lon="1.74982">
        <ele>167.39999389648</ele>
        <time>2013-06-06T13:49:58.000Z</time>
      </trkpt>
      <trkpt lat="48.69415" lon="1.74966">
        <ele>167</ele>
        <time>2013-06-06T13:50:04.000Z</time>
      </trkpt>
      <trkpt lat="48.6941" lon="1.74949">
        <ele>166.39999389648</ele>
        <time>2013-06-06T13:50:10.000Z</time>
      </trkpt>
      <trkpt lat="48.69407" lon="1.74938">
        <ele>165.80000305176</ele>
        <time>2013-06-06T13:50:15.000Z</time>
      </trkpt>
      <trkpt lat="48.69404" lon="1.74928">
        <ele>165.39999389648</ele>
        <time>2013-06-06T13:50:21.000Z</time>
      </trkpt>
      <trkpt lat="48.69399" lon="1.74926">
        <ele>165.19999694824</ele>
        <time>2013-06-06T13:50:25.000Z</time>
      </trkpt>
      <trkpt lat="48.69395" lon="1.74921">
        <ele>164.80000305176</ele>
        <time>2013-06-06T13:50:29.000Z</time>
      </trkpt>
      <trkpt lat="48.69391" lon="1.74903">
        <ele>163.80000305176</ele>
        <time>2013-06-06T13:50:37.000Z</time>
      </trkpt>
      <trkpt lat="48.69389" lon="1.74887">
        <ele>163.19999694824</ele>
        <time>2013-06-06T13:50:43.000Z</time>
      </trkpt>
      <trkpt lat="48.69387" lon="1.74874">
        <ele>162.80000305176</ele>
        <time>2013-06-06T13:50:48.000Z</time>
      </trkpt>
      <trkpt lat="48.69385" lon="1.74863">
        <ele>162.39999389648</ele>
        <time>2013-06-06T13:50:53.000Z</time>
      </trkpt>
      <trkpt lat="48.69384" lon="1.74859">
        <ele>162.19999694824</ele>
        <time>2013-06-06T13:50:59.000Z</time>
      </trkpt>
      <trkpt lat="48.69381" lon="1.74854">
        <ele>162</ele>
        <time>2013-06-06T13:51:02.000Z</time>
      </trkpt>
      <trkpt lat="48.69377" lon="1.74839">
        <ele>161.60000610352</ele>
        <time>2013-06-06T13:51:09.000Z</time>
      </trkpt>
      <trkpt lat="48.69376" lon="1.74829">
        <ele>161.60000610352</ele>
        <time>2013-06-06T13:51:13.000Z</time>
      </trkpt>
      <trkpt lat="48.69371" lon="1.74806">
        <ele>162.60000610352</ele>
        <time>2013-06-06T13:51:22.000Z</time>
      </trkpt>
      <trkpt lat="48.69368" lon="1.74792">
        <ele>163.19999694824</ele>
        <time>2013-06-06T13:51:29.000Z</time>
      </trkpt>
      <trkpt lat="48.69367" lon="1.74781">
        <ele>163.80000305176</ele>
        <time>2013-06-06T13:51:35.000Z</time>
      </trkpt>
      <trkpt lat="48.69366" lon="1.74768">
        <ele>164.19999694824</ele>
        <time>2013-06-06T13:51:43.000Z</time>
      </trkpt>
      <trkpt lat="48.69365" lon="1.7476">
        <ele>164.60000610352</ele>
        <time>2013-06-06T13:51:47.000Z</time>
      </trkpt>
      <trkpt lat="48.69363" lon="1.74754">
        <ele>165</ele>
        <time>2013-06-06T13:51:50.000Z</time>
      </trkpt>
      <trkpt lat="48.69363" lon="1.74748">
        <ele>165.19999694824</ele>
        <time>2013-06-06T13:51:54.000Z</time>
      </trkpt>
      <trkpt lat="48.69358" lon="1.74733">
        <ele>165.80000305176</ele>
        <time>2013-06-06T13:52:01.000Z</time>
      </trkpt>
      <trkpt lat="48.69355" lon="1.74725">
        <ele>166</ele>
        <time>2013-06-06T13:52:04.000Z</time>
      </trkpt>
      <trkpt lat="48.69353" lon="1.74713">
        <ele>166.39999389648</ele>
        <time>2013-06-06T13:52:10.000Z</time>
      </trkpt>
      <trkpt lat="48.69352" lon="1.74708">
        <ele>166.60000610352</ele>
        <time>2013-06-06T13:52:13.000Z</time>
      </trkpt>
      <trkpt lat="48.69346" lon="1.74692">
        <ele>166.80000305176</ele>
        <time>2013-06-06T13:52:19.000Z</time>
      </trkpt>
      <trkpt lat="48.69338" lon="1.74675">
        <ele>167</ele>
        <time>2013-06-06T13:52:26.000Z</time>
      </trkpt>
      <trkpt lat="48.69334" lon="1.74659">
        <ele>167</ele>
        <time>2013-06-06T13:52:33.000Z</time>
      </trkpt>
      <trkpt lat="48.69328" lon="1.74637">
        <ele>167.19999694824</ele>
        <time>2013-06-06T13:52:42.000Z</time>
      </trkpt>
      <trkpt lat="48.69322" lon="1.74615">
        <ele>167.60000610352</ele>
        <time>2013-06-06T13:52:51.000Z</time>
      </trkpt>
      <trkpt lat="48.69316" lon="1.74599">
        <ele>167.80000305176</ele>
        <time>2013-06-06T13:52:59.000Z</time>
      </trkpt>
      <trkpt lat="48.69311" lon="1.74587">
        <ele>168.19999694824</ele>
        <time>2013-06-06T13:53:05.000Z</time>
      </trkpt>
      <trkpt lat="48.69315" lon="1.74575">
        <ele>168</ele>
        <time>2013-06-06T13:53:10.000Z</time>
      </trkpt>
      <trkpt lat="48.69324" lon="1.74558">
        <ele>167.80000305176</ele>
        <time>2013-06-06T13:53:18.000Z</time>
      </trkpt>
      <trkpt lat="48.69331" lon="1.74543">
        <ele>167.39999389648</ele>
        <time>2013-06-06T13:53:25.000Z</time>
      </trkpt>
      <trkpt lat="48.69339" lon="1.74528">
        <ele>167.60000610352</ele>
        <time>2013-06-06T13:53:32.000Z</time>
      </trkpt>
      <trkpt lat="48.69344" lon="1.7452">
        <ele>167.60000610352</ele>
        <time>2013-06-06T13:53:36.000Z</time>
      </trkpt>
      <trkpt lat="48.69354" lon="1.74503">
        <ele>168.19999694824</ele>
        <time>2013-06-06T13:53:44.000Z</time>
      </trkpt>
      <trkpt lat="48.69361" lon="1.74487">
        <ele>168.39999389648</ele>
        <time>2013-06-06T13:53:51.000Z</time>
      </trkpt>
      <trkpt lat="48.69366" lon="1.74482">
        <ele>168.60000610352</ele>
        <time>2013-06-06T13:53:54.000Z</time>
      </trkpt>
      <trkpt lat="48.69368" lon="1.74478">
        <ele>168.60000610352</ele>
        <time>2013-06-06T13:53:56.000Z</time>
      </trkpt>
      <trkpt lat="48.69363" lon="1.7446">
        <ele>168</ele>
        <time>2013-06-06T13:54:01.000Z</time>
      </trkpt>
      <trkpt lat="48.69367" lon="1.74454">
        <ele>168.19999694824</ele>
        <time>2013-06-06T13:54:04.000Z</time>
      </trkpt>
      <trkpt lat="48.69374" lon="1.74452">
        <ele>168.39999389648</ele>
        <time>2013-06-06T13:54:08.000Z</time>
      </trkpt>
      <trkpt lat="48.6938" lon="1.74441">
        <ele>168.60000610352</ele>
        <time>2013-06-06T13:54:14.000Z</time>
      </trkpt>
      <trkpt lat="48.6939" lon="1.74423">
        <ele>168.80000305176</ele>
        <time>2013-06-06T13:54:22.000Z</time>
      </trkpt>
      <trkpt lat="48.69401" lon="1.74404">
        <ele>168.60000610352</ele>
        <time>2013-06-06T13:54:31.000Z</time>
      </trkpt>
      <trkpt lat="48.69407" lon="1.74392">
        <ele>168.19999694824</ele>
        <time>2013-06-06T13:54:37.000Z</time>
      </trkpt>
      <trkpt lat="48.69416" lon="1.74377">
        <ele>168</ele>
        <time>2013-06-06T13:54:45.000Z</time>
      </trkpt>
      <trkpt lat="48.6942" lon="1.74368">
        <ele>167.80000305176</ele>
        <time>2013-06-06T13:54:50.000Z</time>
      </trkpt>
      <trkpt lat="48.69425" lon="1.74362">
        <ele>167.80000305176</ele>
        <time>2013-06-06T13:54:54.000Z</time>
      </trkpt>
      <trkpt lat="48.6943" lon="1.7435">
        <ele>167.80000305176</ele>
        <time>2013-06-06T13:55:00.000Z</time>
      </trkpt>
      <trkpt lat="48.6943" lon="1.74346">
        <ele>167.60000610352</ele>
        <time>2013-06-06T13:55:02.000Z</time>
      </trkpt>
      <trkpt lat="48.69434" lon="1.74334">
        <ele>167.60000610352</ele>
        <time>2013-06-06T13:55:08.000Z</time>
      </trkpt>
      <trkpt lat="48.69442" lon="1.74321">
        <ele>168</ele>
        <time>2013-06-06T13:55:15.000Z</time>
      </trkpt>
      <trkpt lat="48.69449" lon="1.74303">
        <ele>168.39999389648</ele>
        <time>2013-06-06T13:55:23.000Z</time>
      </trkpt>
      <trkpt lat="48.69455" lon="1.74286">
        <ele>168.60000610352</ele>
        <time>2013-06-06T13:55:27.000Z</time>
      </trkpt>
      <trkpt lat="48.69468" lon="1.74263">
        <ele>169.60000610352</ele>
        <time>2013-06-06T13:55:32.000Z</time>
      </trkpt>
      <trkpt lat="48.69485" lon="1.74231">
        <ele>172.19999694824</ele>
        <time>2013-06-06T13:55:39.000Z</time>
      </trkpt>
      <trkpt lat="48.69494" lon="1.74214">
        <ele>174.19999694824</ele>
        <time>2013-06-06T13:55:43.000Z</time>
      </trkpt>
      <trkpt lat="48.69511" lon="1.74188">
        <ele>176.60000610352</ele>
        <time>2013-06-06T13:55:49.000Z</time>
      </trkpt>
      <trkpt lat="48.69521" lon="1.74171">
        <ele>177.39999389648</ele>
        <time>2013-06-06T13:55:53.000Z</time>
      </trkpt>
      <trkpt lat="48.69536" lon="1.74143">
        <ele>178</ele>
        <time>2013-06-06T13:55:59.000Z</time>
      </trkpt>
      <trkpt lat="48.6955" lon="1.74122">
        <ele>178</ele>
        <time>2013-06-06T13:56:04.000Z</time>
      </trkpt>
      <trkpt lat="48.69568" lon="1.74092">
        <ele>178.19999694824</ele>
        <time>2013-06-06T13:56:11.000Z</time>
      </trkpt>
      <trkpt lat="48.69577" lon="1.74071">
        <ele>178.39999389648</ele>
        <time>2013-06-06T13:56:15.000Z</time>
      </trkpt>
      <trkpt lat="48.69585" lon="1.74046">
        <ele>178.60000610352</ele>
        <time>2013-06-06T13:56:20.000Z</time>
      </trkpt>
      <trkpt lat="48.69593" lon="1.7403">
        <ele>178.39999389648</ele>
        <time>2013-06-06T13:56:23.000Z</time>
      </trkpt>
      <trkpt lat="48.69603" lon="1.74003">
        <ele>178.39999389648</ele>
        <time>2013-06-06T13:56:29.000Z</time>
      </trkpt>
      <trkpt lat="48.69607" lon="1.73986">
        <ele>178.60000610352</ele>
        <time>2013-06-06T13:56:34.000Z</time>
      </trkpt>
      <trkpt lat="48.69614" lon="1.73976">
        <ele>178.39999389648</ele>
        <time>2013-06-06T13:56:40.000Z</time>
      </trkpt>
      <trkpt lat="48.69617" lon="1.73974">
        <ele>178.19999694824</ele>
        <time>2013-06-06T13:56:42.000Z</time>
      </trkpt>
      <trkpt lat="48.69627" lon="1.73957">
        <ele>177.80000305176</ele>
        <time>2013-06-06T13:56:48.000Z</time>
      </trkpt>
      <trkpt lat="48.69642" lon="1.73921">
        <ele>177.60000610352</ele>
        <time>2013-06-06T13:56:56.000Z</time>
      </trkpt>
      <trkpt lat="48.69656" lon="1.73893">
        <ele>177.19999694824</ele>
        <time>2013-06-06T13:57:02.000Z</time>
      </trkpt>
      <trkpt lat="48.69668" lon="1.73871">
        <ele>177</ele>
        <time>2013-06-06T13:57:07.000Z</time>
      </trkpt>
      <trkpt lat="48.6968" lon="1.7385">
        <ele>177</ele>
        <time>2013-06-06T13:57:12.000Z</time>
      </trkpt>
      <trkpt lat="48.69689" lon="1.73829">
        <ele>177.19999694824</ele>
        <time>2013-06-06T13:57:17.000Z</time>
      </trkpt>
      <trkpt lat="48.69697" lon="1.7381">
        <ele>177.19999694824</ele>
        <time>2013-06-06T13:57:22.000Z</time>
      </trkpt>
      <trkpt lat="48.69702" lon="1.738">
        <ele>177.19999694824</ele>
        <time>2013-06-06T13:57:26.000Z</time>
      </trkpt>
      <trkpt lat="48.69707" lon="1.73794">
        <ele>177.19999694824</ele>
        <time>2013-06-06T13:57:30.000Z</time>
      </trkpt>
      <trkpt lat="48.69715" lon="1.73781">
        <ele>177.19999694824</ele>
        <time>2013-06-06T13:57:36.000Z</time>
      </trkpt>
      <trkpt lat="48.69722" lon="1.73766">
        <ele>177.19999694824</ele>
        <time>2013-06-06T13:57:43.000Z</time>
      </trkpt>
      <trkpt lat="48.69728" lon="1.73755">
        <ele>177.39999389648</ele>
        <time>2013-06-06T13:57:49.000Z</time>
      </trkpt>
      <trkpt lat="48.6973" lon="1.73748">
        <ele>177.39999389648</ele>
        <time>2013-06-06T13:57:53.000Z</time>
      </trkpt>
      <trkpt lat="48.69731" lon="1.73741">
        <ele>177.60000610352</ele>
        <time>2013-06-06T13:57:57.000Z</time>
      </trkpt>
      <trkpt lat="48.69733" lon="1.73736">
        <ele>177.80000305176</ele>
        <time>2013-06-06T13:58:00.000Z</time>
      </trkpt>
      <trkpt lat="48.6974" lon="1.73719">
        <ele>178.19999694824</ele>
        <time>2013-06-06T13:58:08.000Z</time>
      </trkpt>
      <trkpt lat="48.69745" lon="1.73706">
        <ele>178.60000610352</ele>
        <time>2013-06-06T13:58:14.000Z</time>
      </trkpt>
      <trkpt lat="48.69751" lon="1.73699">
        <ele>178.80000305176</ele>
        <time>2013-06-06T13:58:20.000Z</time>
      </trkpt>
      <trkpt lat="48.69755" lon="1.73691">
        <ele>179</ele>
        <time>2013-06-06T13:58:25.000Z</time>
      </trkpt>
      <trkpt lat="48.69756" lon="1.73687">
        <ele>179.19999694824</ele>
        <time>2013-06-06T13:58:27.000Z</time>
      </trkpt>
      <trkpt lat="48.6976" lon="1.73681">
        <ele>179.19999694824</ele>
        <time>2013-06-06T13:58:31.000Z</time>
      </trkpt>
      <trkpt lat="48.69764" lon="1.73675">
        <ele>179.39999389648</ele>
        <time>2013-06-06T13:58:37.000Z</time>
      </trkpt>
      <trkpt lat="48.69764" lon="1.73675">
        <ele>179.39999389648</ele>
        <time>2013-06-06T13:58:38.000Z</time>
      </trkpt>
      <trkpt lat="48.6976" lon="1.73668">
        <ele>179.80000305176</ele>
        <time>2013-06-06T13:58:51.000Z</time>
      </trkpt>
      <trkpt lat="48.69752" lon="1.73669">
        <ele>179.80000305176</ele>
        <time>2013-06-06T13:58:57.000Z</time>
      </trkpt>
      <trkpt lat="48.69749" lon="1.73671">
        <ele>179.80000305176</ele>
        <time>2013-06-06T13:59:01.000Z</time>
      </trkpt>
      <trkpt lat="48.69742" lon="1.73673">
        <ele>179.60000610352</ele>
        <time>2013-06-06T13:59:06.000Z</time>
      </trkpt>
      <trkpt lat="48.69739" lon="1.73672">
        <ele>179.80000305176</ele>
        <time>2013-06-06T13:59:09.000Z</time>
      </trkpt>
      <trkpt lat="48.69732" lon="1.73669">
        <ele>179.80000305176</ele>
        <time>2013-06-06T13:59:15.000Z</time>
      </trkpt>
      <trkpt lat="48.69728" lon="1.73671">
        <ele>179.80000305176</ele>
        <time>2013-06-06T13:59:17.000Z</time>
      </trkpt>
      <trkpt lat="48.6972" lon="1.73673">
        <ele>179.80000305176</ele>
        <time>2013-06-06T13:59:23.000Z</time>
      </trkpt>
      <trkpt lat="48.69711" lon="1.73673">
        <ele>179.80000305176</ele>
        <time>2013-06-06T13:59:29.000Z</time>
      </trkpt>
      <trkpt lat="48.697" lon="1.73675">
        <ele>179.80000305176</ele>
        <time>2013-06-06T13:59:36.000Z</time>
      </trkpt>
      <trkpt lat="48.6969" lon="1.73675">
        <ele>179.80000305176</ele>
        <time>2013-06-06T13:59:42.000Z</time>
      </trkpt>
      <trkpt lat="48.69682" lon="1.73672">
        <ele>179.80000305176</ele>
        <time>2013-06-06T13:59:48.000Z</time>
      </trkpt>
      <trkpt lat="48.69677" lon="1.73672">
        <ele>179.80000305176</ele>
        <time>2013-06-06T13:59:53.000Z</time>
      </trkpt>
      <trkpt lat="48.69674" lon="1.73671">
        <ele>179.80000305176</ele>
        <time>2013-06-06T13:59:55.000Z</time>
      </trkpt>
      <trkpt lat="48.69666" lon="1.7367">
        <ele>179.80000305176</ele>
        <time>2013-06-06T14:00:02.000Z</time>
      </trkpt>
      <trkpt lat="48.69658" lon="1.73671">
        <ele>179.80000305176</ele>
        <time>2013-06-06T14:00:07.000Z</time>
      </trkpt>
      <trkpt lat="48.69646" lon="1.73669">
        <ele>179.80000305176</ele>
        <time>2013-06-06T14:00:14.000Z</time>
      </trkpt>
      <trkpt lat="48.69635" lon="1.73668">
        <ele>179.80000305176</ele>
        <time>2013-06-06T14:00:21.000Z</time>
      </trkpt>
      <trkpt lat="48.69624" lon="1.73667">
        <ele>180</ele>
        <time>2013-06-06T14:00:28.000Z</time>
      </trkpt>
      <trkpt lat="48.69611" lon="1.73665">
        <ele>180</ele>
        <time>2013-06-06T14:00:35.000Z</time>
      </trkpt>
      <trkpt lat="48.696" lon="1.73665">
        <ele>180</ele>
        <time>2013-06-06T14:00:42.000Z</time>
      </trkpt>
      <trkpt lat="48.69588" lon="1.73664">
        <ele>180</ele>
        <time>2013-06-06T14:00:49.000Z</time>
      </trkpt>
      <trkpt lat="48.69579" lon="1.73663">
        <ele>179.80000305176</ele>
        <time>2013-06-06T14:00:54.000Z</time>
      </trkpt>
      <trkpt lat="48.69566" lon="1.73659">
        <ele>178.80000305176</ele>
        <time>2013-06-06T14:01:02.000Z</time>
      </trkpt>
      <trkpt lat="48.69553" lon="1.73656">
        <ele>177.80000305176</ele>
        <time>2013-06-06T14:01:11.000Z</time>
      </trkpt>
      <trkpt lat="48.6954" lon="1.73655">
        <ele>177</ele>
        <time>2013-06-06T14:01:19.000Z</time>
      </trkpt>
      <trkpt lat="48.69528" lon="1.73652">
        <ele>176.19999694824</ele>
        <time>2013-06-06T14:01:26.000Z</time>
      </trkpt>
      <trkpt lat="48.69516" lon="1.73654">
        <ele>175.19999694824</ele>
        <time>2013-06-06T14:01:34.000Z</time>
      </trkpt>
      <trkpt lat="48.69502" lon="1.73655">
        <ele>174.19999694824</ele>
        <time>2013-06-06T14:01:41.000Z</time>
      </trkpt>
      <trkpt lat="48.6949" lon="1.73652">
        <ele>173.60000610352</ele>
        <time>2013-06-06T14:01:47.000Z</time>
      </trkpt>
      <trkpt lat="48.69477" lon="1.73652">
        <ele>173.19999694824</ele>
        <time>2013-06-06T14:01:54.000Z</time>
      </trkpt>
      <trkpt lat="48.69462" lon="1.73652">
        <ele>172.60000610352</ele>
        <time>2013-06-06T14:02:01.000Z</time>
      </trkpt>
      <trkpt lat="48.69454" lon="1.73651">
        <ele>172.39999389648</ele>
        <time>2013-06-06T14:02:06.000Z</time>
      </trkpt>
      <trkpt lat="48.69442" lon="1.73649">
        <ele>171.80000305176</ele>
        <time>2013-06-06T14:02:12.000Z</time>
      </trkpt>
      <trkpt lat="48.6943" lon="1.73647">
        <ele>171.39999389648</ele>
        <time>2013-06-06T14:02:18.000Z</time>
      </trkpt>
      <trkpt lat="48.69422" lon="1.73645">
        <ele>171.19999694824</ele>
        <time>2013-06-06T14:02:23.000Z</time>
      </trkpt>
      <trkpt lat="48.69409" lon="1.73644">
        <ele>171</ele>
        <time>2013-06-06T14:02:31.000Z</time>
      </trkpt>
      <trkpt lat="48.69393" lon="1.73642">
        <ele>171.39999389648</ele>
        <time>2013-06-06T14:02:40.000Z</time>
      </trkpt>
      <trkpt lat="48.69381" lon="1.73642">
        <ele>171.60000610352</ele>
        <time>2013-06-06T14:02:48.000Z</time>
      </trkpt>
      <trkpt lat="48.69371" lon="1.73644">
        <ele>171.60000610352</ele>
        <time>2013-06-06T14:02:54.000Z</time>
      </trkpt>
      <trkpt lat="48.69363" lon="1.73643">
        <ele>171.80000305176</ele>
        <time>2013-06-06T14:02:59.000Z</time>
      </trkpt>
      <trkpt lat="48.69351" lon="1.7364">
        <ele>172.19999694824</ele>
        <time>2013-06-06T14:03:05.000Z</time>
      </trkpt>
      <trkpt lat="48.69341" lon="1.73641">
        <ele>172.19999694824</ele>
        <time>2013-06-06T14:03:11.000Z</time>
      </trkpt>
      <trkpt lat="48.6933" lon="1.73639">
        <ele>172.80000305176</ele>
        <time>2013-06-06T14:03:18.000Z</time>
      </trkpt>
      <trkpt lat="48.69318" lon="1.7364">
        <ele>173.19999694824</ele>
        <time>2013-06-06T14:03:24.000Z</time>
      </trkpt>
      <trkpt lat="48.69305" lon="1.73638">
        <ele>173.80000305176</ele>
        <time>2013-06-06T14:03:31.000Z</time>
      </trkpt>
      <trkpt lat="48.69292" lon="1.73634">
        <ele>174.60000610352</ele>
        <time>2013-06-06T14:03:38.000Z</time>
      </trkpt>
      <trkpt lat="48.6928" lon="1.73631">
        <ele>175.19999694824</ele>
        <time>2013-06-06T14:03:45.000Z</time>
      </trkpt>
      <trkpt lat="48.69267" lon="1.73632">
        <ele>175.80000305176</ele>
        <time>2013-06-06T14:03:52.000Z</time>
      </trkpt>
      <trkpt lat="48.69261" lon="1.73628">
        <ele>176.19999694824</ele>
        <time>2013-06-06T14:03:55.000Z</time>
      </trkpt>
      <trkpt lat="48.69252" lon="1.73632">
        <ele>176.39999389648</ele>
        <time>2013-06-06T14:04:02.000Z</time>
      </trkpt>
      <trkpt lat="48.69246" lon="1.73635">
        <ele>176.39999389648</ele>
        <time>2013-06-06T14:04:08.000Z</time>
      </trkpt>
      <trkpt lat="48.69235" lon="1.73632">
        <ele>177</ele>
        <time>2013-06-06T14:04:13.000Z</time>
      </trkpt>
      <trkpt lat="48.69224" lon="1.73628">
        <ele>177.60000610352</ele>
        <time>2013-06-06T14:04:20.000Z</time>
      </trkpt>
      <trkpt lat="48.69213" lon="1.73629">
        <ele>177.80000305176</ele>
        <time>2013-06-06T14:04:27.000Z</time>
      </trkpt>
      <trkpt lat="48.69208" lon="1.73629">
        <ele>178</ele>
        <time>2013-06-06T14:04:31.000Z</time>
      </trkpt>
      <trkpt lat="48.69207" lon="1.73629">
        <ele>178</ele>
        <time>2013-06-06T14:04:33.000Z</time>
      </trkpt>
      <trkpt lat="48.69203" lon="1.73627">
        <ele>178.19999694824</ele>
        <time>2013-06-06T14:04:39.000Z</time>
      </trkpt>
      <trkpt lat="48.6919" lon="1.73625">
        <ele>178.60000610352</ele>
        <time>2013-06-06T14:04:45.000Z</time>
      </trkpt>
      <trkpt lat="48.69179" lon="1.73626">
        <ele>179</ele>
        <time>2013-06-06T14:04:51.000Z</time>
      </trkpt>
      <trkpt lat="48.69168" lon="1.73624">
        <ele>179.39999389648</ele>
        <time>2013-06-06T14:04:58.000Z</time>
      </trkpt>
      <trkpt lat="48.69161" lon="1.73622">
        <ele>179.19999694824</ele>
        <time>2013-06-06T14:05:02.000Z</time>
      </trkpt>
      <trkpt lat="48.69151" lon="1.7362">
        <ele>178.80000305176</ele>
        <time>2013-06-06T14:05:08.000Z</time>
      </trkpt>
      <trkpt lat="48.69147" lon="1.73619">
        <ele>178.60000610352</ele>
        <time>2013-06-06T14:05:10.000Z</time>
      </trkpt>
      <trkpt lat="48.69141" lon="1.73617">
        <ele>178.39999389648</ele>
        <time>2013-06-06T14:05:14.000Z</time>
      </trkpt>
      <trkpt lat="48.69132" lon="1.73615">
        <ele>178</ele>
        <time>2013-06-06T14:05:21.000Z</time>
      </trkpt>
      <trkpt lat="48.69123" lon="1.73615">
        <ele>177.60000610352</ele>
        <time>2013-06-06T14:05:28.000Z</time>
      </trkpt>
      <trkpt lat="48.69111" lon="1.73611">
        <ele>177</ele>
        <time>2013-06-06T14:05:37.000Z</time>
      </trkpt>
      <trkpt lat="48.69098" lon="1.73609">
        <ele>176.39999389648</ele>
        <time>2013-06-06T14:05:45.000Z</time>
      </trkpt>
      <trkpt lat="48.69093" lon="1.73612">
        <ele>176</ele>
        <time>2013-06-06T14:05:49.000Z</time>
      </trkpt>
      <trkpt lat="48.6908" lon="1.73611">
        <ele>175.39999389648</ele>
        <time>2013-06-06T14:05:56.000Z</time>
      </trkpt>
      <trkpt lat="48.69072" lon="1.73618">
        <ele>175</ele>
        <time>2013-06-06T14:06:01.000Z</time>
      </trkpt>
      <trkpt lat="48.6907" lon="1.73624">
        <ele>174.80000305176</ele>
        <time>2013-06-06T14:06:04.000Z</time>
      </trkpt>
      <trkpt lat="48.69075" lon="1.73638">
        <ele>175</ele>
        <time>2013-06-06T14:06:10.000Z</time>
      </trkpt>
      <trkpt lat="48.69076" lon="1.7365">
        <ele>174.80000305176</ele>
        <time>2013-06-06T14:06:16.000Z</time>
      </trkpt>
      <trkpt lat="48.69081" lon="1.73668">
        <ele>174.80000305176</ele>
        <time>2013-06-06T14:06:25.000Z</time>
      </trkpt>
      <trkpt lat="48.69085" lon="1.73687">
        <ele>175.19999694824</ele>
        <time>2013-06-06T14:06:33.000Z</time>
      </trkpt>
      <trkpt lat="48.69085" lon="1.73699">
        <ele>175.39999389648</ele>
        <time>2013-06-06T14:06:38.000Z</time>
      </trkpt>
      <trkpt lat="48.69086" lon="1.73707">
        <ele>175.39999389648</ele>
        <time>2013-06-06T14:06:41.000Z</time>
      </trkpt>
      <trkpt lat="48.69089" lon="1.73718">
        <ele>175.60000610352</ele>
        <time>2013-06-06T14:06:46.000Z</time>
      </trkpt>
      <trkpt lat="48.69093" lon="1.73724">
        <ele>175.60000610352</ele>
        <time>2013-06-06T14:06:48.000Z</time>
      </trkpt>
      <trkpt lat="48.69098" lon="1.73737">
        <ele>175.80000305176</ele>
        <time>2013-06-06T14:06:53.000Z</time>
      </trkpt>
      <trkpt lat="48.691" lon="1.73744">
        <ele>175.80000305176</ele>
        <time>2013-06-06T14:06:56.000Z</time>
      </trkpt>
      <trkpt lat="48.69104" lon="1.73763">
        <ele>175.19999694824</ele>
        <time>2013-06-06T14:07:03.000Z</time>
      </trkpt>
      <trkpt lat="48.69108" lon="1.73774">
        <ele>174.60000610352</ele>
        <time>2013-06-06T14:07:08.000Z</time>
      </trkpt>
      <trkpt lat="48.69111" lon="1.73787">
        <ele>174</ele>
        <time>2013-06-06T14:07:14.000Z</time>
      </trkpt>
      <trkpt lat="48.69117" lon="1.73804">
        <ele>173</ele>
        <time>2013-06-06T14:07:19.000Z</time>
      </trkpt>
      <trkpt lat="48.69119" lon="1.7382">
        <ele>172.19999694824</ele>
        <time>2013-06-06T14:07:25.000Z</time>
      </trkpt>
      <trkpt lat="48.69122" lon="1.73833">
        <ele>171.39999389648</ele>
        <time>2013-06-06T14:07:30.000Z</time>
      </trkpt>
      <trkpt lat="48.69126" lon="1.73848">
        <ele>170.39999389648</ele>
        <time>2013-06-06T14:07:36.000Z</time>
      </trkpt>
      <trkpt lat="48.6913" lon="1.73867">
        <ele>169.19999694824</ele>
        <time>2013-06-06T14:07:42.000Z</time>
      </trkpt>
      <trkpt lat="48.69135" lon="1.73878">
        <ele>168.39999389648</ele>
        <time>2013-06-06T14:07:47.000Z</time>
      </trkpt>
      <trkpt lat="48.69138" lon="1.7389">
        <ele>167.60000610352</ele>
        <time>2013-06-06T14:07:52.000Z</time>
      </trkpt>
      <trkpt lat="48.69139" lon="1.739">
        <ele>167</ele>
        <time>2013-06-06T14:07:56.000Z</time>
      </trkpt>
      <trkpt lat="48.69144" lon="1.73921">
        <ele>165.80000305176</ele>
        <time>2013-06-06T14:08:04.000Z</time>
      </trkpt>
      <trkpt lat="48.69148" lon="1.73939">
        <ele>165.19999694824</ele>
        <time>2013-06-06T14:08:11.000Z</time>
      </trkpt>
      <trkpt lat="48.69155" lon="1.7396">
        <ele>164.60000610352</ele>
        <time>2013-06-06T14:08:19.000Z</time>
      </trkpt>
      <trkpt lat="48.6916" lon="1.73975">
        <ele>164</ele>
        <time>2013-06-06T14:08:24.000Z</time>
      </trkpt>
      <trkpt lat="48.69162" lon="1.7398">
        <ele>163.80000305176</ele>
        <time>2013-06-06T14:08:26.000Z</time>
      </trkpt>
      <trkpt lat="48.69168" lon="1.73998">
        <ele>163</ele>
        <time>2013-06-06T14:08:33.000Z</time>
      </trkpt>
      <trkpt lat="48.69169" lon="1.74004">
        <ele>162.80000305176</ele>
        <time>2013-06-06T14:08:35.000Z</time>
      </trkpt>
      <trkpt lat="48.69174" lon="1.7402">
        <ele>162.39999389648</ele>
        <time>2013-06-06T14:08:41.000Z</time>
      </trkpt>
      <trkpt lat="48.69181" lon="1.74044">
        <ele>161.80000305176</ele>
        <time>2013-06-06T14:08:50.000Z</time>
      </trkpt>
      <trkpt lat="48.69183" lon="1.74054">
        <ele>161.60000610352</ele>
        <time>2013-06-06T14:08:54.000Z</time>
      </trkpt>
      <trkpt lat="48.69187" lon="1.7407">
        <ele>161.39999389648</ele>
        <time>2013-06-06T14:09:00.000Z</time>
      </trkpt>
      <trkpt lat="48.69191" lon="1.74086">
        <ele>161.19999694824</ele>
        <time>2013-06-06T14:09:06.000Z</time>
      </trkpt>
      <trkpt lat="48.69195" lon="1.74107">
        <ele>160.80000305176</ele>
        <time>2013-06-06T14:09:14.000Z</time>
      </trkpt>
      <trkpt lat="48.692" lon="1.74127">
        <ele>160.60000610352</ele>
        <time>2013-06-06T14:09:22.000Z</time>
      </trkpt>
      <trkpt lat="48.69205" lon="1.74147">
        <ele>160.19999694824</ele>
        <time>2013-06-06T14:09:30.000Z</time>
      </trkpt>
      <trkpt lat="48.6921" lon="1.74172">
        <ele>159.80000305176</ele>
        <time>2013-06-06T14:09:38.000Z</time>
      </trkpt>
      <trkpt lat="48.69214" lon="1.74187">
        <ele>159.19999694824</ele>
        <time>2013-06-06T14:09:45.000Z</time>
      </trkpt>
      <trkpt lat="48.69215" lon="1.7419">
        <ele>159</ele>
        <time>2013-06-06T14:09:46.000Z</time>
      </trkpt>
      <trkpt lat="48.69219" lon="1.74211">
        <ele>158.19999694824</ele>
        <time>2013-06-06T14:09:54.000Z</time>
      </trkpt>
      <trkpt lat="48.69224" lon="1.74226">
        <ele>157.39999389648</ele>
        <time>2013-06-06T14:10:00.000Z</time>
      </trkpt>
      <trkpt lat="48.69229" lon="1.74241">
        <ele>156.60000610352</ele>
        <time>2013-06-06T14:10:06.000Z</time>
      </trkpt>
      <trkpt lat="48.69233" lon="1.74256">
        <ele>156.19999694824</ele>
        <time>2013-06-06T14:10:12.000Z</time>
      </trkpt>
      <trkpt lat="48.69236" lon="1.74261">
        <ele>156</ele>
        <time>2013-06-06T14:10:14.000Z</time>
      </trkpt>
      <trkpt lat="48.69241" lon="1.74275">
        <ele>156.39999389648</ele>
        <time>2013-06-06T14:10:20.000Z</time>
      </trkpt>
      <trkpt lat="48.69242" lon="1.74277">
        <ele>156.39999389648</ele>
        <time>2013-06-06T14:10:21.000Z</time>
      </trkpt>
      <trkpt lat="48.69246" lon="1.74283">
        <ele>156.39999389648</ele>
        <time>2013-06-06T14:10:24.000Z</time>
      </trkpt>
      <trkpt lat="48.69249" lon="1.74284">
        <ele>156.19999694824</ele>
        <time>2013-06-06T14:10:28.000Z</time>
      </trkpt>
      <trkpt lat="48.6925" lon="1.7429">
        <ele>156.39999389648</ele>
        <time>2013-06-06T14:10:34.000Z</time>
      </trkpt>
      <trkpt lat="48.69249" lon="1.74304">
        <ele>156.80000305176</ele>
        <time>2013-06-06T14:10:38.000Z</time>
      </trkpt>
      <trkpt lat="48.69251" lon="1.74323">
        <ele>157.60000610352</ele>
        <time>2013-06-06T14:10:43.000Z</time>
      </trkpt>
      <trkpt lat="48.6926" lon="1.74344">
        <ele>159.19999694824</ele>
        <time>2013-06-06T14:10:48.000Z</time>
      </trkpt>
      <trkpt lat="48.69264" lon="1.7436">
        <ele>160.80000305176</ele>
        <time>2013-06-06T14:10:52.000Z</time>
      </trkpt>
      <trkpt lat="48.69267" lon="1.74386">
        <ele>163.19999694824</ele>
        <time>2013-06-06T14:10:57.000Z</time>
      </trkpt>
      <trkpt lat="48.69273" lon="1.74407">
        <ele>165.19999694824</ele>
        <time>2013-06-06T14:11:02.000Z</time>
      </trkpt>
      <trkpt lat="48.69279" lon="1.74433">
        <ele>166.39999389648</ele>
        <time>2013-06-06T14:11:07.000Z</time>
      </trkpt>
      <trkpt lat="48.69285" lon="1.74458">
        <ele>167</ele>
        <time>2013-06-06T14:11:12.000Z</time>
      </trkpt>
      <trkpt lat="48.69291" lon="1.74491">
        <ele>167.60000610352</ele>
        <time>2013-06-06T14:11:18.000Z</time>
      </trkpt>
      <trkpt lat="48.69297" lon="1.74521">
        <ele>168</ele>
        <time>2013-06-06T14:11:24.000Z</time>
      </trkpt>
      <trkpt lat="48.69305" lon="1.74543">
        <ele>168</ele>
        <time>2013-06-06T14:11:29.000Z</time>
      </trkpt>
      <trkpt lat="48.69311" lon="1.74563">
        <ele>168</ele>
        <time>2013-06-06T14:11:34.000Z</time>
      </trkpt>
      <trkpt lat="48.69317" lon="1.7458">
        <ele>168</ele>
        <time>2013-06-06T14:11:41.000Z</time>
      </trkpt>
      <trkpt lat="48.6932" lon="1.74595">
        <ele>167.80000305176</ele>
        <time>2013-06-06T14:11:47.000Z</time>
      </trkpt>
      <trkpt lat="48.69322" lon="1.74606">
        <ele>167.80000305176</ele>
        <time>2013-06-06T14:11:51.000Z</time>
      </trkpt>
      <trkpt lat="48.69325" lon="1.74617">
        <ele>167.60000610352</ele>
        <time>2013-06-06T14:11:55.000Z</time>
      </trkpt>
      <trkpt lat="48.69331" lon="1.74637">
        <ele>167.19999694824</ele>
        <time>2013-06-06T14:12:02.000Z</time>
      </trkpt>
      <trkpt lat="48.69332" lon="1.74655">
        <ele>167</ele>
        <time>2013-06-06T14:12:07.000Z</time>
      </trkpt>
      <trkpt lat="48.69337" lon="1.74667">
        <ele>167</ele>
        <time>2013-06-06T14:12:12.000Z</time>
      </trkpt>
      <trkpt lat="48.69343" lon="1.74678">
        <ele>167</ele>
        <time>2013-06-06T14:12:17.000Z</time>
      </trkpt>
      <trkpt lat="48.69344" lon="1.74681">
        <ele>167</ele>
        <time>2013-06-06T14:12:19.000Z</time>
      </trkpt>
      <trkpt lat="48.69347" lon="1.74698">
        <ele>166.80000305176</ele>
        <time>2013-06-06T14:12:26.000Z</time>
      </trkpt>
      <trkpt lat="48.69348" lon="1.74701">
        <ele>166.60000610352</ele>
        <time>2013-06-06T14:12:27.000Z</time>
      </trkpt>
      <trkpt lat="48.6935" lon="1.74717">
        <ele>166.19999694824</ele>
        <time>2013-06-06T14:12:34.000Z</time>
      </trkpt>
      <trkpt lat="48.6935" lon="1.74719">
        <ele>166.19999694824</ele>
        <time>2013-06-06T14:12:35.000Z</time>
      </trkpt>
      <trkpt lat="48.69353" lon="1.74738">
        <ele>165.80000305176</ele>
        <time>2013-06-06T14:12:42.000Z</time>
      </trkpt>
      <trkpt lat="48.69356" lon="1.74749">
        <ele>165.39999389648</ele>
        <time>2013-06-06T14:12:46.000Z</time>
      </trkpt>
      <trkpt lat="48.69361" lon="1.74759">
        <ele>164.80000305176</ele>
        <time>2013-06-06T14:12:51.000Z</time>
      </trkpt>
      <trkpt lat="48.69364" lon="1.74776">
        <ele>164</ele>
        <time>2013-06-06T14:12:57.000Z</time>
      </trkpt>
      <trkpt lat="48.69367" lon="1.74785">
        <ele>163.60000610352</ele>
        <time>2013-06-06T14:13:01.000Z</time>
      </trkpt>
      <trkpt lat="48.69369" lon="1.74795">
        <ele>163</ele>
        <time>2013-06-06T14:13:05.000Z</time>
      </trkpt>
      <trkpt lat="48.69375" lon="1.74822">
        <ele>161.80000305176</ele>
        <time>2013-06-06T14:13:15.000Z</time>
      </trkpt>
      <trkpt lat="48.69382" lon="1.7484">
        <ele>161.60000610352</ele>
        <time>2013-06-06T14:13:23.000Z</time>
      </trkpt>
      <trkpt lat="48.69385" lon="1.74855">
        <ele>162.19999694824</ele>
        <time>2013-06-06T14:13:29.000Z</time>
      </trkpt>
      <trkpt lat="48.69389" lon="1.74869">
        <ele>162.60000610352</ele>
        <time>2013-06-06T14:13:35.000Z</time>
      </trkpt>
      <trkpt lat="48.69389" lon="1.74872">
        <ele>162.80000305176</ele>
        <time>2013-06-06T14:13:36.000Z</time>
      </trkpt>
      <trkpt lat="48.69394" lon="1.74888">
        <ele>163.60000610352</ele>
        <time>2013-06-06T14:13:43.000Z</time>
      </trkpt>
      <trkpt lat="48.69401" lon="1.74908">
        <ele>164.60000610352</ele>
        <time>2013-06-06T14:13:49.000Z</time>
      </trkpt>
      <trkpt lat="48.69402" lon="1.74919">
        <ele>165.19999694824</ele>
        <time>2013-06-06T14:13:54.000Z</time>
      </trkpt>
      <trkpt lat="48.69401" lon="1.7493">
        <ele>165.39999389648</ele>
        <time>2013-06-06T14:13:59.000Z</time>
      </trkpt>
      <trkpt lat="48.69407" lon="1.74947">
        <ele>166.19999694824</ele>
        <time>2013-06-06T14:14:06.000Z</time>
      </trkpt>
      <trkpt lat="48.6941" lon="1.74958">
        <ele>166.60000610352</ele>
        <time>2013-06-06T14:14:11.000Z</time>
      </trkpt>
      <trkpt lat="48.69415" lon="1.74967">
        <ele>167</ele>
        <time>2013-06-06T14:14:15.000Z</time>
      </trkpt>
      <trkpt lat="48.6942" lon="1.74976">
        <ele>167.39999389648</ele>
        <time>2013-06-06T14:14:19.000Z</time>
      </trkpt>
      <trkpt lat="48.69423" lon="1.7499">
        <ele>167.60000610352</ele>
        <time>2013-06-06T14:14:24.000Z</time>
      </trkpt>
      <trkpt lat="48.69426" lon="1.75001">
        <ele>167.80000305176</ele>
        <time>2013-06-06T14:14:29.000Z</time>
      </trkpt>
      <trkpt lat="48.69426" lon="1.75003">
        <ele>167.80000305176</ele>
        <time>2013-06-06T14:14:30.000Z</time>
      </trkpt>
      <trkpt lat="48.69432" lon="1.75023">
        <ele>167.80000305176</ele>
        <time>2013-06-06T14:14:38.000Z</time>
      </trkpt>
      <trkpt lat="48.69436" lon="1.7504">
        <ele>167.60000610352</ele>
        <time>2013-06-06T14:14:45.000Z</time>
      </trkpt>
      <trkpt lat="48.69438" lon="1.75051">
        <ele>167.60000610352</ele>
        <time>2013-06-06T14:14:49.000Z</time>
      </trkpt>
      <trkpt lat="48.69448" lon="1.75061">
        <ele>167.39999389648</ele>
        <time>2013-06-06T14:14:57.000Z</time>
      </trkpt>
      <trkpt lat="48.69459" lon="1.75056">
        <ele>167.19999694824</ele>
        <time>2013-06-06T14:15:04.000Z</time>
      </trkpt>
      <trkpt lat="48.69466" lon="1.75051">
        <ele>167.19999694824</ele>
        <time>2013-06-06T14:15:09.000Z</time>
      </trkpt>
      <trkpt lat="48.69472" lon="1.75047">
        <ele>167.19999694824</ele>
        <time>2013-06-06T14:15:13.000Z</time>
      </trkpt>
      <trkpt lat="48.6948" lon="1.75043">
        <ele>167.19999694824</ele>
        <time>2013-06-06T14:15:17.000Z</time>
      </trkpt>
      <trkpt lat="48.69489" lon="1.75037">
        <ele>167.19999694824</ele>
        <time>2013-06-06T14:15:22.000Z</time>
      </trkpt>
      <trkpt lat="48.69497" lon="1.75031">
        <ele>167.19999694824</ele>
        <time>2013-06-06T14:15:27.000Z</time>
      </trkpt>
      <trkpt lat="48.69504" lon="1.75029">
        <ele>166.80000305176</ele>
        <time>2013-06-06T14:15:33.000Z</time>
      </trkpt>
      <trkpt lat="48.69514" lon="1.75023">
        <ele>166</ele>
        <time>2013-06-06T14:15:38.000Z</time>
      </trkpt>
      <trkpt lat="48.69525" lon="1.75017">
        <ele>165</ele>
        <time>2013-06-06T14:15:45.000Z</time>
      </trkpt>
      <trkpt lat="48.69534" lon="1.75012">
        <ele>164</ele>
        <time>2013-06-06T14:15:51.000Z</time>
      </trkpt>
      <trkpt lat="48.69542" lon="1.75008">
        <ele>163.19999694824</ele>
        <time>2013-06-06T14:15:56.000Z</time>
      </trkpt>
      <trkpt lat="48.69556" lon="1.75002">
        <ele>161.80000305176</ele>
        <time>2013-06-06T14:16:03.000Z</time>
      </trkpt>
      <trkpt lat="48.69571" lon="1.74995">
        <ele>160.19999694824</ele>
        <time>2013-06-06T14:16:11.000Z</time>
      </trkpt>
      <trkpt lat="48.6958" lon="1.7499">
        <ele>159.19999694824</ele>
        <time>2013-06-06T14:16:16.000Z</time>
      </trkpt>
      <trkpt lat="48.69588" lon="1.74987">
        <ele>159</ele>
        <time>2013-06-06T14:16:22.000Z</time>
      </trkpt>
      <trkpt lat="48.69597" lon="1.74983">
        <ele>159.39999389648</ele>
        <time>2013-06-06T14:16:27.000Z</time>
      </trkpt>
      <trkpt lat="48.69609" lon="1.74981">
        <ele>160</ele>
        <time>2013-06-06T14:16:34.000Z</time>
      </trkpt>
      <trkpt lat="48.69622" lon="1.74974">
        <ele>160.39999389648</ele>
        <time>2013-06-06T14:16:40.000Z</time>
      </trkpt>
      <trkpt lat="48.69631" lon="1.74969">
        <ele>160.80000305176</ele>
        <time>2013-06-06T14:16:46.000Z</time>
      </trkpt>
      <trkpt lat="48.69632" lon="1.74967">
        <ele>160.80000305176</ele>
        <time>2013-06-06T14:16:50.000Z</time>
      </trkpt>
      <trkpt lat="48.69647" lon="1.7496">
        <ele>161.39999389648</ele>
        <time>2013-06-06T14:16:57.000Z</time>
      </trkpt>
      <trkpt lat="48.69654" lon="1.74955">
        <ele>161.80000305176</ele>
        <time>2013-06-06T14:17:03.000Z</time>
      </trkpt>
      <trkpt lat="48.69664" lon="1.7495">
        <ele>162.19999694824</ele>
        <time>2013-06-06T14:17:09.000Z</time>
      </trkpt>
      <trkpt lat="48.69675" lon="1.74946">
        <ele>162.60000610352</ele>
        <time>2013-06-06T14:17:15.000Z</time>
      </trkpt>
      <trkpt lat="48.69681" lon="1.74941">
        <ele>162.80000305176</ele>
        <time>2013-06-06T14:17:20.000Z</time>
      </trkpt>
      <trkpt lat="48.69695" lon="1.74933">
        <ele>163.39999389648</ele>
        <time>2013-06-06T14:17:28.000Z</time>
      </trkpt>
      <trkpt lat="48.69704" lon="1.7493">
        <ele>163.80000305176</ele>
        <time>2013-06-06T14:17:33.000Z</time>
      </trkpt>
      <trkpt lat="48.69713" lon="1.74924">
        <ele>164.19999694824</ele>
        <time>2013-06-06T14:17:39.000Z</time>
      </trkpt>
      <trkpt lat="48.69724" lon="1.74919">
        <ele>164.60000610352</ele>
        <time>2013-06-06T14:17:45.000Z</time>
      </trkpt>
      <trkpt lat="48.69731" lon="1.74916">
        <ele>165</ele>
        <time>2013-06-06T14:17:49.000Z</time>
      </trkpt>
      <trkpt lat="48.69743" lon="1.74911">
        <ele>165.60000610352</ele>
        <time>2013-06-06T14:17:55.000Z</time>
      </trkpt>
      <trkpt lat="48.69751" lon="1.74907">
        <ele>165.80000305176</ele>
        <time>2013-06-06T14:18:01.000Z</time>
      </trkpt>
      <trkpt lat="48.69761" lon="1.74902">
        <ele>166</ele>
        <time>2013-06-06T14:18:07.000Z</time>
      </trkpt>
      <trkpt lat="48.69771" lon="1.74899">
        <ele>166.19999694824</ele>
        <time>2013-06-06T14:18:13.000Z</time>
      </trkpt>
      <trkpt lat="48.69785" lon="1.74892">
        <ele>166.60000610352</ele>
        <time>2013-06-06T14:18:22.000Z</time>
      </trkpt>
      <trkpt lat="48.69788" lon="1.74891">
        <ele>166.80000305176</ele>
        <time>2013-06-06T14:18:24.000Z</time>
      </trkpt>
      <trkpt lat="48.69798" lon="1.74884">
        <ele>167.19999694824</ele>
        <time>2013-06-06T14:18:31.000Z</time>
      </trkpt>
      <trkpt lat="48.69806" lon="1.7488">
        <ele>167.60000610352</ele>
        <time>2013-06-06T14:18:37.000Z</time>
      </trkpt>
      <trkpt lat="48.69814" lon="1.74876">
        <ele>168</ele>
        <time>2013-06-06T14:18:42.000Z</time>
      </trkpt>
      <trkpt lat="48.69823" lon="1.74872">
        <ele>168.60000610352</ele>
        <time>2013-06-06T14:18:49.000Z</time>
      </trkpt>
      <trkpt lat="48.6983" lon="1.74869">
        <ele>169</ele>
        <time>2013-06-06T14:18:54.000Z</time>
      </trkpt>
      <trkpt lat="48.69837" lon="1.74865">
        <ele>169.39999389648</ele>
        <time>2013-06-06T14:18:58.000Z</time>
      </trkpt>
      <trkpt lat="48.69848" lon="1.74859">
        <ele>169.80000305176</ele>
        <time>2013-06-06T14:19:06.000Z</time>
      </trkpt>
      <trkpt lat="48.69851" lon="1.74858">
        <ele>169.80000305176</ele>
        <time>2013-06-06T14:19:08.000Z</time>
      </trkpt>
      <trkpt lat="48.69864" lon="1.74852">
        <ele>170.19999694824</ele>
        <time>2013-06-06T14:19:17.000Z</time>
      </trkpt>
      <trkpt lat="48.6987" lon="1.7485">
        <ele>170.19999694824</ele>
        <time>2013-06-06T14:19:22.000Z</time>
      </trkpt>
      <trkpt lat="48.69882" lon="1.74846">
        <ele>170.19999694824</ele>
        <time>2013-06-06T14:19:29.000Z</time>
      </trkpt>
      <trkpt lat="48.69897" lon="1.74843">
        <ele>170.19999694824</ele>
        <time>2013-06-06T14:19:37.000Z</time>
      </trkpt>
      <trkpt lat="48.69902" lon="1.74839">
        <ele>170.19999694824</ele>
        <time>2013-06-06T14:19:41.000Z</time>
      </trkpt>
      <trkpt lat="48.69915" lon="1.74834">
        <ele>170</ele>
        <time>2013-06-06T14:19:47.000Z</time>
      </trkpt>
      <trkpt lat="48.69925" lon="1.7483">
        <ele>170</ele>
        <time>2013-06-06T14:19:54.000Z</time>
      </trkpt>
      <trkpt lat="48.69929" lon="1.7483">
        <ele>170.19999694824</ele>
        <time>2013-06-06T14:19:57.000Z</time>
      </trkpt>
      <trkpt lat="48.69939" lon="1.74823">
        <ele>170.19999694824</ele>
        <time>2013-06-06T14:20:04.000Z</time>
      </trkpt>
      <trkpt lat="48.69946" lon="1.74818">
        <ele>170.19999694824</ele>
        <time>2013-06-06T14:20:09.000Z</time>
      </trkpt>
      <trkpt lat="48.69953" lon="1.74814">
        <ele>170.19999694824</ele>
        <time>2013-06-06T14:20:15.000Z</time>
      </trkpt>
      <trkpt lat="48.69957" lon="1.7481">
        <ele>170.19999694824</ele>
        <time>2013-06-06T14:20:19.000Z</time>
      </trkpt>
      <trkpt lat="48.6997" lon="1.74805">
        <ele>170.19999694824</ele>
        <time>2013-06-06T14:20:27.000Z</time>
      </trkpt>
      <trkpt lat="48.69979" lon="1.74803">
        <ele>170</ele>
        <time>2013-06-06T14:20:33.000Z</time>
      </trkpt>
      <trkpt lat="48.6999" lon="1.74799">
        <ele>169.80000305176</ele>
        <time>2013-06-06T14:20:41.000Z</time>
      </trkpt>
      <trkpt lat="48.69999" lon="1.74795">
        <ele>169.60000610352</ele>
        <time>2013-06-06T14:20:47.000Z</time>
      </trkpt>
      <trkpt lat="48.70011" lon="1.74788">
        <ele>169.80000305176</ele>
        <time>2013-06-06T14:20:55.000Z</time>
      </trkpt>
      <trkpt lat="48.70021" lon="1.7478">
        <ele>170.19999694824</ele>
        <time>2013-06-06T14:21:02.000Z</time>
      </trkpt>
      <trkpt lat="48.7003" lon="1.74777">
        <ele>170.60000610352</ele>
        <time>2013-06-06T14:21:08.000Z</time>
      </trkpt>
      <trkpt lat="48.70038" lon="1.74773">
        <ele>171.19999694824</ele>
        <time>2013-06-06T14:21:14.000Z</time>
      </trkpt>
      <trkpt lat="48.70049" lon="1.74769">
        <ele>171.60000610352</ele>
        <time>2013-06-06T14:21:21.000Z</time>
      </trkpt>
      <trkpt lat="48.70051" lon="1.74767">
        <ele>171.80000305176</ele>
        <time>2013-06-06T14:21:24.000Z</time>
      </trkpt>
      <trkpt lat="48.70061" lon="1.74763">
        <ele>172.39999389648</ele>
        <time>2013-06-06T14:21:30.000Z</time>
      </trkpt>
      <trkpt lat="48.70067" lon="1.74763">
        <ele>172.80000305176</ele>
        <time>2013-06-06T14:21:34.000Z</time>
      </trkpt>
      <trkpt lat="48.70073" lon="1.74758">
        <ele>173.19999694824</ele>
        <time>2013-06-06T14:21:39.000Z</time>
      </trkpt>
      <trkpt lat="48.70084" lon="1.74753">
        <ele>174</ele>
        <time>2013-06-06T14:21:46.000Z</time>
      </trkpt>
      <trkpt lat="48.70094" lon="1.7475">
        <ele>174.19999694824</ele>
        <time>2013-06-06T14:21:51.000Z</time>
      </trkpt>
      <trkpt lat="48.70104" lon="1.74746">
        <ele>174.60000610352</ele>
        <time>2013-06-06T14:21:58.000Z</time>
      </trkpt>
      <trkpt lat="48.70114" lon="1.74741">
        <ele>174.80000305176</ele>
        <time>2013-06-06T14:22:04.000Z</time>
      </trkpt>
      <trkpt lat="48.70122" lon="1.74737">
        <ele>175</ele>
        <time>2013-06-06T14:22:10.000Z</time>
      </trkpt>
      <trkpt lat="48.7013" lon="1.74733">
        <ele>175</ele>
        <time>2013-06-06T14:22:16.000Z</time>
      </trkpt>
      <trkpt lat="48.70137" lon="1.74729">
        <ele>175</ele>
        <time>2013-06-06T14:22:22.000Z</time>
      </trkpt>
      <trkpt lat="48.70143" lon="1.74723">
        <ele>175</ele>
        <time>2013-06-06T14:22:27.000Z</time>
      </trkpt>
      <trkpt lat="48.70155" lon="1.74717">
        <ele>175</ele>
        <time>2013-06-06T14:22:33.000Z</time>
      </trkpt>
      <trkpt lat="48.70164" lon="1.74714">
        <ele>175.19999694824</ele>
        <time>2013-06-06T14:22:39.000Z</time>
      </trkpt>
      <trkpt lat="48.70174" lon="1.74708">
        <ele>174.39999389648</ele>
        <time>2013-06-06T14:22:45.000Z</time>
      </trkpt>
      <trkpt lat="48.70177" lon="1.74706">
        <ele>174.19999694824</ele>
        <time>2013-06-06T14:22:47.000Z</time>
      </trkpt>
      <trkpt lat="48.7019" lon="1.74704">
        <ele>173.19999694824</ele>
        <time>2013-06-06T14:22:54.000Z</time>
      </trkpt>
      <trkpt lat="48.70194" lon="1.74702">
        <ele>172.80000305176</ele>
        <time>2013-06-06T14:22:57.000Z</time>
      </trkpt>
      <trkpt lat="48.70202" lon="1.74698">
        <ele>172.19999694824</ele>
        <time>2013-06-06T14:23:03.000Z</time>
      </trkpt>
      <trkpt lat="48.70207" lon="1.74694">
        <ele>171.60000610352</ele>
        <time>2013-06-06T14:23:07.000Z</time>
      </trkpt>
      <trkpt lat="48.70221" lon="1.74689">
        <ele>170.60000610352</ele>
        <time>2013-06-06T14:23:15.000Z</time>
      </trkpt>
      <trkpt lat="48.70221" lon="1.74689">
        <ele>170.60000610352</ele>
        <time>2013-06-06T14:23:16.000Z</time>
      </trkpt>
      <trkpt lat="48.70233" lon="1.74682">
        <ele>169.60000610352</ele>
        <time>2013-06-06T14:23:22.000Z</time>
      </trkpt>
      <trkpt lat="48.70244" lon="1.74678">
        <ele>168.60000610352</ele>
        <time>2013-06-06T14:23:27.000Z</time>
      </trkpt>
      <trkpt lat="48.70253" lon="1.74675">
        <ele>168.19999694824</ele>
        <time>2013-06-06T14:23:34.000Z</time>
      </trkpt>
      <trkpt lat="48.7026" lon="1.74674">
        <ele>168.19999694824</ele>
        <time>2013-06-06T14:23:38.000Z</time>
      </trkpt>
      <trkpt lat="48.70268" lon="1.74669">
        <ele>168.19999694824</ele>
        <time>2013-06-06T14:23:45.000Z</time>
      </trkpt>
      <trkpt lat="48.70269" lon="1.74668">
        <ele>168.19999694824</ele>
        <time>2013-06-06T14:23:49.000Z</time>
      </trkpt>
      <trkpt lat="48.70278" lon="1.74664">
        <ele>168.19999694824</ele>
        <time>2013-06-06T14:24:14.000Z</time>
      </trkpt>
      <trkpt lat="48.70282" lon="1.74664">
        <ele>168.39999389648</ele>
        <time>2013-06-06T14:24:16.000Z</time>
      </trkpt>
      <trkpt lat="48.70283" lon="1.7467">
        <ele>168.39999389648</ele>
        <time>2013-06-06T14:24:20.000Z</time>
      </trkpt>
      <trkpt lat="48.70281" lon="1.74683">
        <ele>168.60000610352</ele>
        <time>2013-06-06T14:24:28.000Z</time>
      </trkpt>
      <trkpt lat="48.70282" lon="1.74685">
        <ele>168.60000610352</ele>
        <time>2013-06-06T14:24:33.000Z</time>
      </trkpt>
      <trkpt lat="48.70282" lon="1.74694">
        <ele>168.80000305176</ele>
        <time>2013-06-06T14:25:08.000Z</time>
      </trkpt>
      <trkpt lat="48.70277" lon="1.74711">
        <ele>169.19999694824</ele>
        <time>2013-06-06T14:25:14.000Z</time>
      </trkpt>
      <trkpt lat="48.70276" lon="1.74722">
        <ele>169.39999389648</ele>
        <time>2013-06-06T14:25:19.000Z</time>
      </trkpt>
      <trkpt lat="48.70275" lon="1.74728">
        <ele>169.60000610352</ele>
        <time>2013-06-06T14:25:22.000Z</time>
      </trkpt>
      <trkpt lat="48.70274" lon="1.74738">
        <ele>169.80000305176</ele>
        <time>2013-06-06T14:25:26.000Z</time>
      </trkpt>
      <trkpt lat="48.70271" lon="1.74754">
        <ele>170.19999694824</ele>
        <time>2013-06-06T14:25:33.000Z</time>
      </trkpt>
      <trkpt lat="48.70269" lon="1.74772">
        <ele>170.60000610352</ele>
        <time>2013-06-06T14:25:41.000Z</time>
      </trkpt>
      <trkpt lat="48.70266" lon="1.74786">
        <ele>171.19999694824</ele>
        <time>2013-06-06T14:25:47.000Z</time>
      </trkpt>
      <trkpt lat="48.70263" lon="1.74801">
        <ele>171.60000610352</ele>
        <time>2013-06-06T14:25:54.000Z</time>
      </trkpt>
      <trkpt lat="48.70262" lon="1.74814">
        <ele>171.80000305176</ele>
        <time>2013-06-06T14:26:01.000Z</time>
      </trkpt>
      <trkpt lat="48.7026" lon="1.74829">
        <ele>172.39999389648</ele>
        <time>2013-06-06T14:26:08.000Z</time>
      </trkpt>
      <trkpt lat="48.70256" lon="1.74848">
        <ele>172.60000610352</ele>
        <time>2013-06-06T14:26:15.000Z</time>
      </trkpt>
      <trkpt lat="48.70253" lon="1.74868">
        <ele>172.80000305176</ele>
        <time>2013-06-06T14:26:23.000Z</time>
      </trkpt>
      <trkpt lat="48.70249" lon="1.74893">
        <ele>173</ele>
        <time>2013-06-06T14:26:33.000Z</time>
      </trkpt>
      <trkpt lat="48.70245" lon="1.7491">
        <ele>173</ele>
        <time>2013-06-06T14:26:40.000Z</time>
      </trkpt>
      <trkpt lat="48.70242" lon="1.74929">
        <ele>173.80000305176</ele>
        <time>2013-06-06T14:26:48.000Z</time>
      </trkpt>
      <trkpt lat="48.7024" lon="1.74947">
        <ele>174.60000610352</ele>
        <time>2013-06-06T14:26:56.000Z</time>
      </trkpt>
      <trkpt lat="48.70242" lon="1.74957">
        <ele>175</ele>
        <time>2013-06-06T14:27:01.000Z</time>
      </trkpt>
      <trkpt lat="48.70243" lon="1.74977">
        <ele>176</ele>
        <time>2013-06-06T14:27:10.000Z</time>
      </trkpt>
      <trkpt lat="48.70236" lon="1.74996">
        <ele>177</ele>
        <time>2013-06-06T14:27:18.000Z</time>
      </trkpt>
      <trkpt lat="48.70231" lon="1.75012">
        <ele>177.39999389648</ele>
        <time>2013-06-06T14:27:26.000Z</time>
      </trkpt>
      <trkpt lat="48.70228" lon="1.75024">
        <ele>177.60000610352</ele>
        <time>2013-06-06T14:27:31.000Z</time>
      </trkpt>
      <trkpt lat="48.70224" lon="1.75039">
        <ele>177.80000305176</ele>
        <time>2013-06-06T14:27:37.000Z</time>
      </trkpt>
      <trkpt lat="48.70224" lon="1.75057">
        <ele>178.19999694824</ele>
        <time>2013-06-06T14:27:43.000Z</time>
      </trkpt>
      <trkpt lat="48.70223" lon="1.75064">
        <ele>178.19999694824</ele>
        <time>2013-06-06T14:27:46.000Z</time>
      </trkpt>
      <trkpt lat="48.70222" lon="1.75081">
        <ele>178.60000610352</ele>
        <time>2013-06-06T14:27:54.000Z</time>
      </trkpt>
      <trkpt lat="48.7022" lon="1.75091">
        <ele>178.39999389648</ele>
        <time>2013-06-06T14:27:59.000Z</time>
      </trkpt>
      <trkpt lat="48.70218" lon="1.75096">
        <ele>178.39999389648</ele>
        <time>2013-06-06T14:28:02.000Z</time>
      </trkpt>
      <trkpt lat="48.70217" lon="1.75106">
        <ele>178.19999694824</ele>
        <time>2013-06-06T14:28:06.000Z</time>
      </trkpt>
      <trkpt lat="48.70216" lon="1.75125">
        <ele>178</ele>
        <time>2013-06-06T14:28:13.000Z</time>
      </trkpt>
      <trkpt lat="48.70211" lon="1.75142">
        <ele>177.80000305176</ele>
        <time>2013-06-06T14:28:20.000Z</time>
      </trkpt>
      <trkpt lat="48.70209" lon="1.75148">
        <ele>177.60000610352</ele>
        <time>2013-06-06T14:28:23.000Z</time>
      </trkpt>
      <trkpt lat="48.70208" lon="1.75159">
        <ele>177.39999389648</ele>
        <time>2013-06-06T14:28:28.000Z</time>
      </trkpt>
      <trkpt lat="48.70209" lon="1.75169">
        <ele>177.39999389648</ele>
        <time>2013-06-06T14:28:35.000Z</time>
      </trkpt>
      <trkpt lat="48.70207" lon="1.75172">
        <ele>177.39999389648</ele>
        <time>2013-06-06T14:28:37.000Z</time>
      </trkpt>
      <trkpt lat="48.70203" lon="1.75177">
        <ele>177.19999694824</ele>
        <time>2013-06-06T14:28:40.000Z</time>
      </trkpt>
      <trkpt lat="48.70199" lon="1.75195">
        <ele>177.19999694824</ele>
        <time>2013-06-06T14:28:47.000Z</time>
      </trkpt>
      <trkpt lat="48.70199" lon="1.75206">
        <ele>177.19999694824</ele>
        <time>2013-06-06T14:28:51.000Z</time>
      </trkpt>
      <trkpt lat="48.70196" lon="1.75221">
        <ele>177.19999694824</ele>
        <time>2013-06-06T14:28:57.000Z</time>
      </trkpt>
      <trkpt lat="48.70194" lon="1.75229">
        <ele>177.19999694824</ele>
        <time>2013-06-06T14:29:01.000Z</time>
      </trkpt>
      <trkpt lat="48.70194" lon="1.7524">
        <ele>177.19999694824</ele>
        <time>2013-06-06T14:29:07.000Z</time>
      </trkpt>
      <trkpt lat="48.70197" lon="1.75245">
        <ele>177.39999389648</ele>
        <time>2013-06-06T14:29:11.000Z</time>
      </trkpt>
      <trkpt lat="48.70207" lon="1.75243">
        <ele>177.80000305176</ele>
        <time>2013-06-06T14:29:16.000Z</time>
      </trkpt>
      <trkpt lat="48.70208" lon="1.75243">
        <ele>177.80000305176</ele>
        <time>2013-06-06T14:29:17.000Z</time>
      </trkpt>
      <trkpt lat="48.70219" lon="1.75243">
        <ele>178.39999389648</ele>
        <time>2013-06-06T14:29:22.000Z</time>
      </trkpt>
      <trkpt lat="48.70227" lon="1.75246">
        <ele>178.80000305176</ele>
        <time>2013-06-06T14:29:27.000Z</time>
      </trkpt>
      <trkpt lat="48.70231" lon="1.75248">
        <ele>179</ele>
        <time>2013-06-06T14:29:29.000Z</time>
      </trkpt>
      <trkpt lat="48.70238" lon="1.7525">
        <ele>179.39999389648</ele>
        <time>2013-06-06T14:29:33.000Z</time>
      </trkpt>
      <trkpt lat="48.70242" lon="1.75253">
        <ele>179.60000610352</ele>
        <time>2013-06-06T14:29:36.000Z</time>
      </trkpt>
      <trkpt lat="48.70245" lon="1.75258">
        <ele>179.60000610352</ele>
        <time>2013-06-06T14:29:42.000Z</time>
      </trkpt>
      <trkpt lat="48.70247" lon="1.75259">
        <ele>179.60000610352</ele>
        <time>2013-06-06T14:29:45.000Z</time>
      </trkpt>
      <trkpt lat="48.7025" lon="1.75261">
        <ele>179.80000305176</ele>
        <time>2013-06-06T14:29:46.000Z</time>
      </trkpt>
      <trkpt lat="48.70254" lon="1.75266">
        <ele>179.80000305176</ele>
        <time>2013-06-06T14:29:49.000Z</time>
      </trkpt>
      <trkpt lat="48.7026" lon="1.75271">
        <ele>179.80000305176</ele>
        <time>2013-06-06T14:29:53.000Z</time>
      </trkpt>
      <trkpt lat="48.70264" lon="1.75273">
        <ele>180</ele>
        <time>2013-06-06T14:29:55.000Z</time>
      </trkpt>
      <trkpt lat="48.70274" lon="1.7528">
        <ele>180.19999694824</ele>
        <time>2013-06-06T14:30:01.000Z</time>
      </trkpt>
      <trkpt lat="48.70282" lon="1.75286">
        <ele>180.19999694824</ele>
        <time>2013-06-06T14:30:07.000Z</time>
      </trkpt>
      <trkpt lat="48.70286" lon="1.75288">
        <ele>180.39999389648</ele>
        <time>2013-06-06T14:30:10.000Z</time>
      </trkpt>
      <trkpt lat="48.70295" lon="1.75295">
        <ele>180.39999389648</ele>
        <time>2013-06-06T14:30:16.000Z</time>
      </trkpt>
      <trkpt lat="48.70296" lon="1.75297">
        <ele>180.39999389648</ele>
        <time>2013-06-06T14:30:17.000Z</time>
      </trkpt>
      <trkpt lat="48.70298" lon="1.753">
        <ele>180.39999389648</ele>
        <time>2013-06-06T14:30:19.000Z</time>
      </trkpt>
      <trkpt lat="48.70306" lon="1.75312">
        <ele>180.60000610352</ele>
        <time>2013-06-06T14:30:26.000Z</time>
      </trkpt>
      <trkpt lat="48.70311" lon="1.7532">
        <ele>180.60000610352</ele>
        <time>2013-06-06T14:30:30.000Z</time>
      </trkpt>
      <trkpt lat="48.70313" lon="1.75325">
        <ele>180.60000610352</ele>
        <time>2013-06-06T14:30:33.000Z</time>
      </trkpt>
      <trkpt lat="48.70316" lon="1.7533">
        <ele>180.60000610352</ele>
        <time>2013-06-06T14:30:35.000Z</time>
      </trkpt>
      <trkpt lat="48.70321" lon="1.75337">
        <ele>180.60000610352</ele>
        <time>2013-06-06T14:30:40.000Z</time>
      </trkpt>
      <trkpt lat="48.70324" lon="1.75343">
        <ele>180.60000610352</ele>
        <time>2013-06-06T14:30:44.000Z</time>
      </trkpt>
      <trkpt lat="48.7033" lon="1.75348">
        <ele>180.80000305176</ele>
        <time>2013-06-06T14:30:48.000Z</time>
      </trkpt>
      <trkpt lat="48.70333" lon="1.75352">
        <ele>180.80000305176</ele>
        <time>2013-06-06T14:30:51.000Z</time>
      </trkpt>
      <trkpt lat="48.70337" lon="1.75356">
        <ele>180.80000305176</ele>
        <time>2013-06-06T14:30:55.000Z</time>
      </trkpt>
      <trkpt lat="48.70341" lon="1.7536">
        <ele>180.80000305176</ele>
        <time>2013-06-06T14:30:58.000Z</time>
      </trkpt>
      <trkpt lat="48.70349" lon="1.75368">
        <ele>180.60000610352</ele>
        <time>2013-06-06T14:31:05.000Z</time>
      </trkpt>
      <trkpt lat="48.70357" lon="1.75376">
        <ele>180.60000610352</ele>
        <time>2013-06-06T14:31:10.000Z</time>
      </trkpt>
      <trkpt lat="48.70365" lon="1.75384">
        <ele>180.60000610352</ele>
        <time>2013-06-06T14:31:15.000Z</time>
      </trkpt>
      <trkpt lat="48.70372" lon="1.75391">
        <ele>180.80000305176</ele>
        <time>2013-06-06T14:31:22.000Z</time>
      </trkpt>
      <trkpt lat="48.70376" lon="1.75394">
        <ele>180.80000305176</ele>
        <time>2013-06-06T14:31:24.000Z</time>
      </trkpt>
      <trkpt lat="48.70379" lon="1.75398">
        <ele>181</ele>
        <time>2013-06-06T14:31:27.000Z</time>
      </trkpt>
      <trkpt lat="48.70382" lon="1.754">
        <ele>181</ele>
        <time>2013-06-06T14:31:29.000Z</time>
      </trkpt>
      <trkpt lat="48.70386" lon="1.75403">
        <ele>181.19999694824</ele>
        <time>2013-06-06T14:31:33.000Z</time>
      </trkpt>
      <trkpt lat="48.70394" lon="1.7541">
        <ele>181.39999389648</ele>
        <time>2013-06-06T14:31:40.000Z</time>
      </trkpt>
      <trkpt lat="48.70402" lon="1.75413">
        <ele>181.60000610352</ele>
        <time>2013-06-06T14:31:45.000Z</time>
      </trkpt>
      <trkpt lat="48.70407" lon="1.75419">
        <ele>181.80000305176</ele>
        <time>2013-06-06T14:31:50.000Z</time>
      </trkpt>
      <trkpt lat="48.70413" lon="1.75422">
        <ele>182</ele>
        <time>2013-06-06T14:31:53.000Z</time>
      </trkpt>
      <trkpt lat="48.70421" lon="1.75426">
        <ele>181.80000305176</ele>
        <time>2013-06-06T14:31:58.000Z</time>
      </trkpt>
      <trkpt lat="48.70432" lon="1.75434">
        <ele>181.39999389648</ele>
        <time>2013-06-06T14:32:05.000Z</time>
      </trkpt>
      <trkpt lat="48.70442" lon="1.75441">
        <ele>181</ele>
        <time>2013-06-06T14:32:11.000Z</time>
      </trkpt>
      <trkpt lat="48.70449" lon="1.75448">
        <ele>180.80000305176</ele>
        <time>2013-06-06T14:32:17.000Z</time>
      </trkpt>
      <trkpt lat="48.70455" lon="1.75454">
        <ele>180.60000610352</ele>
        <time>2013-06-06T14:32:22.000Z</time>
      </trkpt>
      <trkpt lat="48.70467" lon="1.75461">
        <ele>180.39999389648</ele>
        <time>2013-06-06T14:32:29.000Z</time>
      </trkpt>
      <trkpt lat="48.70471" lon="1.75467">
        <ele>180.39999389648</ele>
        <time>2013-06-06T14:32:33.000Z</time>
      </trkpt>
      <trkpt lat="48.70481" lon="1.75479">
        <ele>180.39999389648</ele>
        <time>2013-06-06T14:32:40.000Z</time>
      </trkpt>
      <trkpt lat="48.70482" lon="1.7548">
        <ele>180.39999389648</ele>
        <time>2013-06-06T14:32:41.000Z</time>
      </trkpt>
      <trkpt lat="48.70488" lon="1.75484">
        <ele>180.39999389648</ele>
        <time>2013-06-06T14:32:46.000Z</time>
      </trkpt>
      <trkpt lat="48.70496" lon="1.75493">
        <ele>180.60000610352</ele>
        <time>2013-06-06T14:32:51.000Z</time>
      </trkpt>
      <trkpt lat="48.70504" lon="1.75499">
        <ele>180.60000610352</ele>
        <time>2013-06-06T14:32:56.000Z</time>
      </trkpt>
      <trkpt lat="48.7051" lon="1.75506">
        <ele>180.39999389648</ele>
        <time>2013-06-06T14:33:00.000Z</time>
      </trkpt>
      <trkpt lat="48.70513" lon="1.75509">
        <ele>180.39999389648</ele>
        <time>2013-06-06T14:33:03.000Z</time>
      </trkpt>
      <trkpt lat="48.7052" lon="1.75517">
        <ele>180.39999389648</ele>
        <time>2013-06-06T14:33:08.000Z</time>
      </trkpt>
      <trkpt lat="48.70524" lon="1.75521">
        <ele>180.19999694824</ele>
        <time>2013-06-06T14:33:11.000Z</time>
      </trkpt>
      <trkpt lat="48.70534" lon="1.75531">
        <ele>180.39999389648</ele>
        <time>2013-06-06T14:33:18.000Z</time>
      </trkpt>
      <trkpt lat="48.70544" lon="1.75545">
        <ele>180.80000305176</ele>
        <time>2013-06-06T14:33:26.000Z</time>
      </trkpt>
      <trkpt lat="48.7055" lon="1.75552">
        <ele>181</ele>
        <time>2013-06-06T14:33:31.000Z</time>
      </trkpt>
      <trkpt lat="48.70551" lon="1.75554">
        <ele>181.19999694824</ele>
        <time>2013-06-06T14:33:33.000Z</time>
      </trkpt>
      <trkpt lat="48.70564" lon="1.75563">
        <ele>181.39999389648</ele>
        <time>2013-06-06T14:33:41.000Z</time>
      </trkpt>
      <trkpt lat="48.70573" lon="1.75573">
        <ele>182</ele>
        <time>2013-06-06T14:33:47.000Z</time>
      </trkpt>
      <trkpt lat="48.70581" lon="1.7558">
        <ele>182.60000610352</ele>
        <time>2013-06-06T14:33:52.000Z</time>
      </trkpt>
      <trkpt lat="48.70588" lon="1.75588">
        <ele>182.60000610352</ele>
        <time>2013-06-06T14:33:57.000Z</time>
      </trkpt>
      <trkpt lat="48.70595" lon="1.75601">
        <ele>182.19999694824</ele>
        <time>2013-06-06T14:34:05.000Z</time>
      </trkpt>
      <trkpt lat="48.70602" lon="1.75611">
        <ele>181.60000610352</ele>
        <time>2013-06-06T14:34:11.000Z</time>
      </trkpt>
      <trkpt lat="48.70604" lon="1.75613">
        <ele>181.39999389648</ele>
        <time>2013-06-06T14:34:12.000Z</time>
      </trkpt>
      <trkpt lat="48.70612" lon="1.75625">
        <ele>180.80000305176</ele>
        <time>2013-06-06T14:34:18.000Z</time>
      </trkpt>
      <trkpt lat="48.7062" lon="1.75632">
        <ele>180</ele>
        <time>2013-06-06T14:34:24.000Z</time>
      </trkpt>
      <trkpt lat="48.70626" lon="1.7564">
        <ele>179.39999389648</ele>
        <time>2013-06-06T14:34:29.000Z</time>
      </trkpt>
      <trkpt lat="48.70633" lon="1.75647">
        <ele>178.80000305176</ele>
        <time>2013-06-06T14:34:34.000Z</time>
      </trkpt>
      <trkpt lat="48.70636" lon="1.75642">
        <ele>178.39999389648</ele>
        <time>2013-06-06T14:34:40.000Z</time>
      </trkpt>
      <trkpt lat="48.70638" lon="1.75637">
        <ele>178</ele>
        <time>2013-06-06T14:34:42.000Z</time>
      </trkpt>
      <trkpt lat="48.70639" lon="1.75633">
        <ele>178</ele>
        <time>2013-06-06T14:34:44.000Z</time>
      </trkpt>
      <trkpt lat="48.70645" lon="1.75616">
        <ele>177.19999694824</ele>
        <time>2013-06-06T14:34:51.000Z</time>
      </trkpt>
      <trkpt lat="48.70649" lon="1.75605">
        <ele>176.80000305176</ele>
        <time>2013-06-06T14:34:56.000Z</time>
      </trkpt>
      <trkpt lat="48.7065" lon="1.75596">
        <ele>176.60000610352</ele>
        <time>2013-06-06T14:35:01.000Z</time>
      </trkpt>
      <trkpt lat="48.70657" lon="1.7558">
        <ele>175.60000610352</ele>
        <time>2013-06-06T14:35:09.000Z</time>
      </trkpt>
      <trkpt lat="48.70663" lon="1.75573">
        <ele>175</ele>
        <time>2013-06-06T14:35:13.000Z</time>
      </trkpt>
      <trkpt lat="48.70668" lon="1.75569">
        <ele>174.60000610352</ele>
        <time>2013-06-06T14:35:17.000Z</time>
      </trkpt>
      <trkpt lat="48.7067" lon="1.75565">
        <ele>174.39999389648</ele>
        <time>2013-06-06T14:35:19.000Z</time>
      </trkpt>
      <trkpt lat="48.70675" lon="1.75551">
        <ele>173.80000305176</ele>
        <time>2013-06-06T14:35:26.000Z</time>
      </trkpt>
      <trkpt lat="48.7068" lon="1.75542">
        <ele>173.60000610352</ele>
        <time>2013-06-06T14:35:31.000Z</time>
      </trkpt>
      <trkpt lat="48.70686" lon="1.7553">
        <ele>173</ele>
        <time>2013-06-06T14:35:37.000Z</time>
      </trkpt>
      <trkpt lat="48.70694" lon="1.75513">
        <ele>172.60000610352</ele>
        <time>2013-06-06T14:35:45.000Z</time>
      </trkpt>
      <trkpt lat="48.70697" lon="1.75507">
        <ele>172.39999389648</ele>
        <time>2013-06-06T14:35:49.000Z</time>
      </trkpt>
      <trkpt lat="48.70701" lon="1.75497">
        <ele>172</ele>
        <time>2013-06-06T14:35:54.000Z</time>
      </trkpt>
      <trkpt lat="48.70703" lon="1.75489">
        <ele>172</ele>
        <time>2013-06-06T14:36:00.000Z</time>
      </trkpt>
      <trkpt lat="48.70703" lon="1.75489">
        <ele>172</ele>
        <time>2013-06-06T14:36:03.000Z</time>
      </trkpt>
      <trkpt lat="48.70696" lon="1.75476">
        <ele>172</ele>
        <time>2013-06-06T14:37:25.000Z</time>
      </trkpt>
      <trkpt lat="48.70691" lon="1.75476">
        <ele>172</ele>
        <time>2013-06-06T14:37:27.000Z</time>
      </trkpt>
      <trkpt lat="48.70687" lon="1.75473">
        <ele>172</ele>
        <time>2013-06-06T14:37:31.000Z</time>
      </trkpt>
      <trkpt lat="48.70686" lon="1.75471">
        <ele>172</ele>
        <time>2013-06-06T14:37:32.000Z</time>
      </trkpt>
      <trkpt lat="48.70679" lon="1.75464">
        <ele>172</ele>
        <time>2013-06-06T14:37:38.000Z</time>
      </trkpt>
      <trkpt lat="48.70677" lon="1.75461">
        <ele>171.80000305176</ele>
        <time>2013-06-06T14:37:40.000Z</time>
      </trkpt>
      <trkpt lat="48.70672" lon="1.75456">
        <ele>171.80000305176</ele>
        <time>2013-06-06T14:37:45.000Z</time>
      </trkpt>
      <trkpt lat="48.70667" lon="1.7545">
        <ele>171.80000305176</ele>
        <time>2013-06-06T14:37:50.000Z</time>
      </trkpt>
      <trkpt lat="48.70659" lon="1.75442">
        <ele>171.60000610352</ele>
        <time>2013-06-06T14:37:57.000Z</time>
      </trkpt>
      <trkpt lat="48.70656" lon="1.75441">
        <ele>171.60000610352</ele>
        <time>2013-06-06T14:38:00.000Z</time>
      </trkpt>
      <trkpt lat="48.70649" lon="1.75443">
        <ele>171.80000305176</ele>
        <time>2013-06-06T14:38:06.000Z</time>
      </trkpt>
      <trkpt lat="48.70648" lon="1.75442">
        <ele>171.80000305176</ele>
        <time>2013-06-06T14:38:10.000Z</time>
      </trkpt>
    </trkseg>
  </trk>
</gpx>